<?xml version="1.0" encoding="UTF-8" standalone="no" ?>
<gpx xmlns="http://www.topografix.com/GPX/1/1" xmlns:xsi="http://www.w3.org/2001/XMLSchema-instance" xsi:schemaLocation="http://www.topografix.com/GPX/1/1 http://www.topografix.com/GPX/1/1/gpx.xsd" version="1.1" creator="VisuGPX - https://www.visugpx.com">
  <metadata>
    <name>Autour de Lambesc - VTTAE - 19116 - UtagawaVTT.com</name>
  </metadata>
  <trk>
    <name><![CDATA[Autour de Lambesc - VTTAE - 19116 - UtagawaVTT.com]]></name>
    <trkseg>
      <trkpt lat="43.6503" lon="5.25151">
        <ele>186</ele>
        <time>2018-08-27T07:06:23Z</time>
      </trkpt>
      <trkpt lat="43.6503" lon="5.25136">
        <ele>185.600006</ele>
        <time>2018-08-27T07:06:36Z</time>
      </trkpt>
      <trkpt lat="43.65017" lon="5.25124">
        <ele>185</ele>
        <time>2018-08-27T07:06:41Z</time>
      </trkpt>
      <trkpt lat="43.65" lon="5.25116">
        <ele>184.600006</ele>
        <time>2018-08-27T07:06:45Z</time>
      </trkpt>
      <trkpt lat="43.64975" lon="5.25106">
        <ele>183.600006</ele>
        <time>2018-08-27T07:06:50Z</time>
      </trkpt>
      <trkpt lat="43.64943" lon="5.25087">
        <ele>183</ele>
        <time>2018-08-27T07:06:56Z</time>
      </trkpt>
      <trkpt lat="43.6492" lon="5.25046">
        <ele>182.600006</ele>
        <time>2018-08-27T07:07:02Z</time>
      </trkpt>
      <trkpt lat="43.64917" lon="5.25037">
        <ele>182.600006</ele>
        <time>2018-08-27T07:07:03Z</time>
      </trkpt>
      <trkpt lat="43.64909" lon="5.24969">
        <ele>181</ele>
        <time>2018-08-27T07:07:10Z</time>
      </trkpt>
      <trkpt lat="43.64901" lon="5.24938">
        <ele>180.399994</ele>
        <time>2018-08-27T07:07:13Z</time>
      </trkpt>
      <trkpt lat="43.64889" lon="5.24908">
        <ele>179.399994</ele>
        <time>2018-08-27T07:07:16Z</time>
      </trkpt>
      <trkpt lat="43.64879" lon="5.2489">
        <ele>178.399994</ele>
        <time>2018-08-27T07:07:18Z</time>
      </trkpt>
      <trkpt lat="43.64868" lon="5.24873">
        <ele>177.600006</ele>
        <time>2018-08-27T07:07:20Z</time>
      </trkpt>
      <trkpt lat="43.64849" lon="5.24852">
        <ele>176</ele>
        <time>2018-08-27T07:07:23Z</time>
      </trkpt>
      <trkpt lat="43.64808" lon="5.24823">
        <ele>174.800003</ele>
        <time>2018-08-27T07:07:29Z</time>
      </trkpt>
      <trkpt lat="43.64751" lon="5.24805">
        <ele>174</ele>
        <time>2018-08-27T07:07:37Z</time>
      </trkpt>
      <trkpt lat="43.64714" lon="5.24804">
        <ele>173.800003</ele>
        <time>2018-08-27T07:07:43Z</time>
      </trkpt>
      <trkpt lat="43.6469" lon="5.24733">
        <ele>174</ele>
        <time>2018-08-27T07:07:52Z</time>
      </trkpt>
      <trkpt lat="43.64667" lon="5.24659">
        <ele>173.600006</ele>
        <time>2018-08-27T07:07:58Z</time>
      </trkpt>
      <trkpt lat="43.6466" lon="5.24633">
        <ele>172</ele>
        <time>2018-08-27T07:08:00Z</time>
      </trkpt>
      <trkpt lat="43.64653" lon="5.24594">
        <ele>168.600006</ele>
        <time>2018-08-27T07:08:03Z</time>
      </trkpt>
      <trkpt lat="43.64639" lon="5.24536">
        <ele>164.800003</ele>
        <time>2018-08-27T07:08:08Z</time>
      </trkpt>
      <trkpt lat="43.64638" lon="5.24442">
        <ele>164</ele>
        <time>2018-08-27T07:08:16Z</time>
      </trkpt>
      <trkpt lat="43.64634" lon="5.24408">
        <ele>163.800003</ele>
        <time>2018-08-27T07:08:19Z</time>
      </trkpt>
      <trkpt lat="43.64622" lon="5.24333">
        <ele>162.800003</ele>
        <time>2018-08-27T07:08:26Z</time>
      </trkpt>
      <trkpt lat="43.6461" lon="5.24234">
        <ele>162.800003</ele>
        <time>2018-08-27T07:08:36Z</time>
      </trkpt>
      <trkpt lat="43.64599" lon="5.24153">
        <ele>163</ele>
        <time>2018-08-27T07:08:45Z</time>
      </trkpt>
      <trkpt lat="43.64597" lon="5.24128">
        <ele>163</ele>
        <time>2018-08-27T07:08:48Z</time>
      </trkpt>
      <trkpt lat="43.64598" lon="5.24096">
        <ele>163.199997</ele>
        <time>2018-08-27T07:08:52Z</time>
      </trkpt>
      <trkpt lat="43.64595" lon="5.24077">
        <ele>163.199997</ele>
        <time>2018-08-27T07:08:55Z</time>
      </trkpt>
      <trkpt lat="43.64586" lon="5.24054">
        <ele>163.800003</ele>
        <time>2018-08-27T07:08:59Z</time>
      </trkpt>
      <trkpt lat="43.6458" lon="5.24027">
        <ele>165.600006</ele>
        <time>2018-08-27T07:09:03Z</time>
      </trkpt>
      <trkpt lat="43.64576" lon="5.24014">
        <ele>166.199997</ele>
        <time>2018-08-27T07:09:05Z</time>
      </trkpt>
      <trkpt lat="43.64572" lon="5.23993">
        <ele>166.600006</ele>
        <time>2018-08-27T07:09:08Z</time>
      </trkpt>
      <trkpt lat="43.64558" lon="5.23953">
        <ele>166.600006</ele>
        <time>2018-08-27T07:09:16Z</time>
      </trkpt>
      <trkpt lat="43.6452" lon="5.23908">
        <ele>167</ele>
        <time>2018-08-27T07:09:28Z</time>
      </trkpt>
      <trkpt lat="43.64496" lon="5.23882">
        <ele>167.600006</ele>
        <time>2018-08-27T07:09:36Z</time>
      </trkpt>
      <trkpt lat="43.64486" lon="5.23877">
        <ele>167.800003</ele>
        <time>2018-08-27T07:09:39Z</time>
      </trkpt>
      <trkpt lat="43.64478" lon="5.23875">
        <ele>168.399994</ele>
        <time>2018-08-27T07:09:41Z</time>
      </trkpt>
      <trkpt lat="43.64461" lon="5.2387">
        <ele>169.399994</ele>
        <time>2018-08-27T07:09:46Z</time>
      </trkpt>
      <trkpt lat="43.64435" lon="5.23851">
        <ele>170.600006</ele>
        <time>2018-08-27T07:09:53Z</time>
      </trkpt>
      <trkpt lat="43.6442" lon="5.23846">
        <ele>171</ele>
        <time>2018-08-27T07:09:57Z</time>
      </trkpt>
      <trkpt lat="43.64402" lon="5.23828">
        <ele>171.800003</ele>
        <time>2018-08-27T07:10:03Z</time>
      </trkpt>
      <trkpt lat="43.64397" lon="5.2382">
        <ele>172.399994</ele>
        <time>2018-08-27T07:10:05Z</time>
      </trkpt>
      <trkpt lat="43.64393" lon="5.2381">
        <ele>172.800003</ele>
        <time>2018-08-27T07:10:07Z</time>
      </trkpt>
      <trkpt lat="43.64382" lon="5.23738">
        <ele>173</ele>
        <time>2018-08-27T07:10:23Z</time>
      </trkpt>
      <trkpt lat="43.64374" lon="5.23716">
        <ele>174.399994</ele>
        <time>2018-08-27T07:10:30Z</time>
      </trkpt>
      <trkpt lat="43.64369" lon="5.23707">
        <ele>175.199997</ele>
        <time>2018-08-27T07:10:33Z</time>
      </trkpt>
      <trkpt lat="43.64364" lon="5.23705">
        <ele>175.399994</ele>
        <time>2018-08-27T07:10:35Z</time>
      </trkpt>
      <trkpt lat="43.64357" lon="5.23702">
        <ele>175.600006</ele>
        <time>2018-08-27T07:10:38Z</time>
      </trkpt>
      <trkpt lat="43.64325" lon="5.23667">
        <ele>178</ele>
        <time>2018-08-27T07:10:49Z</time>
      </trkpt>
      <trkpt lat="43.64324" lon="5.23657">
        <ele>178.399994</ele>
        <time>2018-08-27T07:10:51Z</time>
      </trkpt>
      <trkpt lat="43.64337" lon="5.23564">
        <ele>179</ele>
        <time>2018-08-27T07:11:11Z</time>
      </trkpt>
      <trkpt lat="43.64343" lon="5.23534">
        <ele>179.199997</ele>
        <time>2018-08-27T07:11:18Z</time>
      </trkpt>
      <trkpt lat="43.6437" lon="5.23466">
        <ele>178.199997</ele>
        <time>2018-08-27T07:11:29Z</time>
      </trkpt>
      <trkpt lat="43.64386" lon="5.2342">
        <ele>176</ele>
        <time>2018-08-27T07:11:36Z</time>
      </trkpt>
      <trkpt lat="43.64398" lon="5.23398">
        <ele>175.399994</ele>
        <time>2018-08-27T07:11:40Z</time>
      </trkpt>
      <trkpt lat="43.64419" lon="5.23347">
        <ele>175.199997</ele>
        <time>2018-08-27T07:11:48Z</time>
      </trkpt>
      <trkpt lat="43.6443" lon="5.23307">
        <ele>174.800003</ele>
        <time>2018-08-27T07:11:54Z</time>
      </trkpt>
      <trkpt lat="43.64445" lon="5.23244">
        <ele>174.600006</ele>
        <time>2018-08-27T07:12:03Z</time>
      </trkpt>
      <trkpt lat="43.64448" lon="5.23215">
        <ele>174.600006</ele>
        <time>2018-08-27T07:12:07Z</time>
      </trkpt>
      <trkpt lat="43.64458" lon="5.2315">
        <ele>174.399994</ele>
        <time>2018-08-27T07:12:16Z</time>
      </trkpt>
      <trkpt lat="43.64458" lon="5.23121">
        <ele>174.399994</ele>
        <time>2018-08-27T07:12:20Z</time>
      </trkpt>
      <trkpt lat="43.64446" lon="5.23046">
        <ele>174.600006</ele>
        <time>2018-08-27T07:12:31Z</time>
      </trkpt>
      <trkpt lat="43.64438" lon="5.22985">
        <ele>175.399994</ele>
        <time>2018-08-27T07:12:40Z</time>
      </trkpt>
      <trkpt lat="43.64434" lon="5.22936">
        <ele>175.600006</ele>
        <time>2018-08-27T07:12:47Z</time>
      </trkpt>
      <trkpt lat="43.64435" lon="5.22887">
        <ele>176.199997</ele>
        <time>2018-08-27T07:12:54Z</time>
      </trkpt>
      <trkpt lat="43.6442" lon="5.22816">
        <ele>176.600006</ele>
        <time>2018-08-27T07:13:04Z</time>
      </trkpt>
      <trkpt lat="43.64408" lon="5.22744">
        <ele>176.600006</ele>
        <time>2018-08-27T07:13:14Z</time>
      </trkpt>
      <trkpt lat="43.6441" lon="5.22687">
        <ele>176</ele>
        <time>2018-08-27T07:13:22Z</time>
      </trkpt>
      <trkpt lat="43.64407" lon="5.22654">
        <ele>175.600006</ele>
        <time>2018-08-27T07:13:27Z</time>
      </trkpt>
      <trkpt lat="43.64397" lon="5.22597">
        <ele>175.199997</ele>
        <time>2018-08-27T07:13:35Z</time>
      </trkpt>
      <trkpt lat="43.64397" lon="5.22577">
        <ele>175</ele>
        <time>2018-08-27T07:13:38Z</time>
      </trkpt>
      <trkpt lat="43.64396" lon="5.22538">
        <ele>175.199997</ele>
        <time>2018-08-27T07:13:44Z</time>
      </trkpt>
      <trkpt lat="43.64395" lon="5.22531">
        <ele>175.199997</ele>
        <time>2018-08-27T07:13:45Z</time>
      </trkpt>
      <trkpt lat="43.64394" lon="5.22494">
        <ele>176.199997</ele>
        <time>2018-08-27T07:13:50Z</time>
      </trkpt>
      <trkpt lat="43.64394" lon="5.22433">
        <ele>176.199997</ele>
        <time>2018-08-27T07:13:58Z</time>
      </trkpt>
      <trkpt lat="43.64396" lon="5.22411">
        <ele>176</ele>
        <time>2018-08-27T07:14:01Z</time>
      </trkpt>
      <trkpt lat="43.64395" lon="5.22397">
        <ele>175.800003</ele>
        <time>2018-08-27T07:14:03Z</time>
      </trkpt>
      <trkpt lat="43.64384" lon="5.22327">
        <ele>174.600006</ele>
        <time>2018-08-27T07:14:12Z</time>
      </trkpt>
      <trkpt lat="43.64377" lon="5.22297">
        <ele>174.399994</ele>
        <time>2018-08-27T07:14:16Z</time>
      </trkpt>
      <trkpt lat="43.64377" lon="5.22274">
        <ele>174.199997</ele>
        <time>2018-08-27T07:14:19Z</time>
      </trkpt>
      <trkpt lat="43.64373" lon="5.22254">
        <ele>173.600006</ele>
        <time>2018-08-27T07:14:22Z</time>
      </trkpt>
      <trkpt lat="43.64356" lon="5.22216">
        <ele>173.399994</ele>
        <time>2018-08-27T07:14:28Z</time>
      </trkpt>
      <trkpt lat="43.64334" lon="5.22147">
        <ele>173.800003</ele>
        <time>2018-08-27T07:14:38Z</time>
      </trkpt>
      <trkpt lat="43.64325" lon="5.22096">
        <ele>174</ele>
        <time>2018-08-27T07:14:45Z</time>
      </trkpt>
      <trkpt lat="43.64325" lon="5.22081">
        <ele>174</ele>
        <time>2018-08-27T07:14:47Z</time>
      </trkpt>
      <trkpt lat="43.64318" lon="5.2202">
        <ele>173.399994</ele>
        <time>2018-08-27T07:14:55Z</time>
      </trkpt>
      <trkpt lat="43.64309" lon="5.22002">
        <ele>173</ele>
        <time>2018-08-27T07:14:58Z</time>
      </trkpt>
      <trkpt lat="43.64301" lon="5.21975">
        <ele>173</ele>
        <time>2018-08-27T07:15:02Z</time>
      </trkpt>
      <trkpt lat="43.64279" lon="5.21912">
        <ele>173.199997</ele>
        <time>2018-08-27T07:15:12Z</time>
      </trkpt>
      <trkpt lat="43.64251" lon="5.21907">
        <ele>174.199997</ele>
        <time>2018-08-27T07:15:20Z</time>
      </trkpt>
      <trkpt lat="43.64245" lon="5.21913">
        <ele>174.800003</ele>
        <time>2018-08-27T07:15:22Z</time>
      </trkpt>
      <trkpt lat="43.64233" lon="5.21917">
        <ele>175.399994</ele>
        <time>2018-08-27T07:15:26Z</time>
      </trkpt>
      <trkpt lat="43.64215" lon="5.21926">
        <ele>175.399994</ele>
        <time>2018-08-27T07:15:31Z</time>
      </trkpt>
      <trkpt lat="43.64189" lon="5.21936">
        <ele>174.800003</ele>
        <time>2018-08-27T07:15:37Z</time>
      </trkpt>
      <trkpt lat="43.64166" lon="5.2194">
        <ele>174</ele>
        <time>2018-08-27T07:15:42Z</time>
      </trkpt>
      <trkpt lat="43.64158" lon="5.21942">
        <ele>173.800003</ele>
        <time>2018-08-27T07:15:44Z</time>
      </trkpt>
      <trkpt lat="43.64143" lon="5.21938">
        <ele>173.600006</ele>
        <time>2018-08-27T07:15:47Z</time>
      </trkpt>
      <trkpt lat="43.64123" lon="5.2193">
        <ele>172</ele>
        <time>2018-08-27T07:15:51Z</time>
      </trkpt>
      <trkpt lat="43.64117" lon="5.21921">
        <ele>171.199997</ele>
        <time>2018-08-27T07:15:53Z</time>
      </trkpt>
      <trkpt lat="43.64114" lon="5.21911">
        <ele>170</ele>
        <time>2018-08-27T07:15:55Z</time>
      </trkpt>
      <trkpt lat="43.64111" lon="5.21888">
        <ele>168.199997</ele>
        <time>2018-08-27T07:16:00Z</time>
      </trkpt>
      <trkpt lat="43.64102" lon="5.21881">
        <ele>168.199997</ele>
        <time>2018-08-27T07:16:04Z</time>
      </trkpt>
      <trkpt lat="43.64098" lon="5.2188">
        <ele>167.800003</ele>
        <time>2018-08-27T07:16:06Z</time>
      </trkpt>
      <trkpt lat="43.64096" lon="5.21877">
        <ele>167.600006</ele>
        <time>2018-08-27T07:16:07Z</time>
      </trkpt>
      <trkpt lat="43.64091" lon="5.21864">
        <ele>167.600006</ele>
        <time>2018-08-27T07:16:10Z</time>
      </trkpt>
      <trkpt lat="43.64088" lon="5.21854">
        <ele>167.199997</ele>
        <time>2018-08-27T07:16:14Z</time>
      </trkpt>
      <trkpt lat="43.64084" lon="5.21843">
        <ele>165.600006</ele>
        <time>2018-08-27T07:16:18Z</time>
      </trkpt>
      <trkpt lat="43.64082" lon="5.21829">
        <ele>166</ele>
        <time>2018-08-27T07:16:28Z</time>
      </trkpt>
      <trkpt lat="43.64068" lon="5.21801">
        <ele>167.199997</ele>
        <time>2018-08-27T07:16:43Z</time>
      </trkpt>
      <trkpt lat="43.64064" lon="5.21792">
        <ele>166.600006</ele>
        <time>2018-08-27T07:16:47Z</time>
      </trkpt>
      <trkpt lat="43.64028" lon="5.21756">
        <ele>165</ele>
        <time>2018-08-27T07:17:01Z</time>
      </trkpt>
      <trkpt lat="43.64015" lon="5.21756">
        <ele>162.600006</ele>
        <time>2018-08-27T07:17:39Z</time>
      </trkpt>
      <trkpt lat="43.64" lon="5.21757">
        <ele>161.399994</ele>
        <time>2018-08-27T07:18:09Z</time>
      </trkpt>
      <trkpt lat="43.63981" lon="5.21761">
        <ele>158.800003</ele>
        <time>2018-08-27T07:18:16Z</time>
      </trkpt>
      <trkpt lat="43.63968" lon="5.21758">
        <ele>154.199997</ele>
        <time>2018-08-27T07:18:22Z</time>
      </trkpt>
      <trkpt lat="43.63963" lon="5.21759">
        <ele>153</ele>
        <time>2018-08-27T07:18:24Z</time>
      </trkpt>
      <trkpt lat="43.63952" lon="5.21766">
        <ele>151.800003</ele>
        <time>2018-08-27T07:18:30Z</time>
      </trkpt>
      <trkpt lat="43.63928" lon="5.21766">
        <ele>149.199997</ele>
        <time>2018-08-27T07:18:36Z</time>
      </trkpt>
      <trkpt lat="43.63916" lon="5.21772">
        <ele>146.600006</ele>
        <time>2018-08-27T07:18:39Z</time>
      </trkpt>
      <trkpt lat="43.63908" lon="5.21773">
        <ele>145</ele>
        <time>2018-08-27T07:18:41Z</time>
      </trkpt>
      <trkpt lat="43.63899" lon="5.21776">
        <ele>143.800003</ele>
        <time>2018-08-27T07:18:44Z</time>
      </trkpt>
      <trkpt lat="43.63895" lon="5.2178">
        <ele>142.399994</ele>
        <time>2018-08-27T07:18:46Z</time>
      </trkpt>
      <trkpt lat="43.63877" lon="5.21789">
        <ele>140.199997</ele>
        <time>2018-08-27T07:18:53Z</time>
      </trkpt>
      <trkpt lat="43.63865" lon="5.21791">
        <ele>139.199997</ele>
        <time>2018-08-27T07:18:57Z</time>
      </trkpt>
      <trkpt lat="43.63847" lon="5.21792">
        <ele>138.800003</ele>
        <time>2018-08-27T07:19:03Z</time>
      </trkpt>
      <trkpt lat="43.63833" lon="5.21787">
        <ele>138.600006</ele>
        <time>2018-08-27T07:19:08Z</time>
      </trkpt>
      <trkpt lat="43.63792" lon="5.21791">
        <ele>138.399994</ele>
        <time>2018-08-27T07:19:20Z</time>
      </trkpt>
      <trkpt lat="43.63736" lon="5.21774">
        <ele>138</ele>
        <time>2018-08-27T07:19:37Z</time>
      </trkpt>
      <trkpt lat="43.6372" lon="5.21772">
        <ele>138</ele>
        <time>2018-08-27T07:19:41Z</time>
      </trkpt>
      <trkpt lat="43.63696" lon="5.21765">
        <ele>137.600006</ele>
        <time>2018-08-27T07:19:48Z</time>
      </trkpt>
      <trkpt lat="43.63679" lon="5.21752">
        <ele>137.399994</ele>
        <time>2018-08-27T07:19:54Z</time>
      </trkpt>
      <trkpt lat="43.63656" lon="5.21717">
        <ele>137.199997</ele>
        <time>2018-08-27T07:20:02Z</time>
      </trkpt>
      <trkpt lat="43.63615" lon="5.21697">
        <ele>136.600006</ele>
        <time>2018-08-27T07:20:12Z</time>
      </trkpt>
      <trkpt lat="43.63596" lon="5.217">
        <ele>136.399994</ele>
        <time>2018-08-27T07:20:16Z</time>
      </trkpt>
      <trkpt lat="43.6358" lon="5.21689">
        <ele>136.199997</ele>
        <time>2018-08-27T07:20:20Z</time>
      </trkpt>
      <trkpt lat="43.63568" lon="5.21676">
        <ele>135.600006</ele>
        <time>2018-08-27T07:20:24Z</time>
      </trkpt>
      <trkpt lat="43.63563" lon="5.21668">
        <ele>135.600006</ele>
        <time>2018-08-27T07:20:26Z</time>
      </trkpt>
      <trkpt lat="43.6355" lon="5.2164">
        <ele>135.600006</ele>
        <time>2018-08-27T07:20:31Z</time>
      </trkpt>
      <trkpt lat="43.63539" lon="5.21619">
        <ele>135.600006</ele>
        <time>2018-08-27T07:20:35Z</time>
      </trkpt>
      <trkpt lat="43.63521" lon="5.2159">
        <ele>135.800003</ele>
        <time>2018-08-27T07:20:41Z</time>
      </trkpt>
      <trkpt lat="43.63502" lon="5.21548">
        <ele>135.199997</ele>
        <time>2018-08-27T07:20:49Z</time>
      </trkpt>
      <trkpt lat="43.63496" lon="5.21531">
        <ele>135</ele>
        <time>2018-08-27T07:20:52Z</time>
      </trkpt>
      <trkpt lat="43.63505" lon="5.21494">
        <ele>135</ele>
        <time>2018-08-27T07:20:58Z</time>
      </trkpt>
      <trkpt lat="43.63519" lon="5.21463">
        <ele>134.800003</ele>
        <time>2018-08-27T07:21:03Z</time>
      </trkpt>
      <trkpt lat="43.63544" lon="5.21421">
        <ele>134.600006</ele>
        <time>2018-08-27T07:21:11Z</time>
      </trkpt>
      <trkpt lat="43.63548" lon="5.21409">
        <ele>134.399994</ele>
        <time>2018-08-27T07:21:13Z</time>
      </trkpt>
      <trkpt lat="43.63563" lon="5.21382">
        <ele>133.399994</ele>
        <time>2018-08-27T07:21:18Z</time>
      </trkpt>
      <trkpt lat="43.63571" lon="5.21365">
        <ele>133.199997</ele>
        <time>2018-08-27T07:21:21Z</time>
      </trkpt>
      <trkpt lat="43.63575" lon="5.21344">
        <ele>133</ele>
        <time>2018-08-27T07:21:24Z</time>
      </trkpt>
      <trkpt lat="43.63579" lon="5.21332">
        <ele>132.800003</ele>
        <time>2018-08-27T07:21:26Z</time>
      </trkpt>
      <trkpt lat="43.63595" lon="5.21305">
        <ele>132.600006</ele>
        <time>2018-08-27T07:21:31Z</time>
      </trkpt>
      <trkpt lat="43.63605" lon="5.21277">
        <ele>132.399994</ele>
        <time>2018-08-27T07:21:36Z</time>
      </trkpt>
      <trkpt lat="43.63597" lon="5.21225">
        <ele>132</ele>
        <time>2018-08-27T07:21:43Z</time>
      </trkpt>
      <trkpt lat="43.63589" lon="5.21198">
        <ele>131.399994</ele>
        <time>2018-08-27T07:21:47Z</time>
      </trkpt>
      <trkpt lat="43.63578" lon="5.21164">
        <ele>130.199997</ele>
        <time>2018-08-27T07:21:52Z</time>
      </trkpt>
      <trkpt lat="43.63559" lon="5.21137">
        <ele>129.800003</ele>
        <time>2018-08-27T07:21:57Z</time>
      </trkpt>
      <trkpt lat="43.63556" lon="5.21131">
        <ele>129.800003</ele>
        <time>2018-08-27T07:21:58Z</time>
      </trkpt>
      <trkpt lat="43.635" lon="5.21063">
        <ele>128.399994</ele>
        <time>2018-08-27T07:22:12Z</time>
      </trkpt>
      <trkpt lat="43.63491" lon="5.21054">
        <ele>128.199997</ele>
        <time>2018-08-27T07:22:14Z</time>
      </trkpt>
      <trkpt lat="43.63473" lon="5.21024">
        <ele>127.800003</ele>
        <time>2018-08-27T07:22:21Z</time>
      </trkpt>
      <trkpt lat="43.63471" lon="5.21017">
        <ele>127.800003</ele>
        <time>2018-08-27T07:22:22Z</time>
      </trkpt>
      <trkpt lat="43.63417" lon="5.20911">
        <ele>126.599998</ele>
        <time>2018-08-27T07:22:38Z</time>
      </trkpt>
      <trkpt lat="43.6341" lon="5.20868">
        <ele>126.400002</ele>
        <time>2018-08-27T07:22:44Z</time>
      </trkpt>
      <trkpt lat="43.63389" lon="5.20836">
        <ele>126.599998</ele>
        <time>2018-08-27T07:22:50Z</time>
      </trkpt>
      <trkpt lat="43.63371" lon="5.2082">
        <ele>126.400002</ele>
        <time>2018-08-27T07:22:54Z</time>
      </trkpt>
      <trkpt lat="43.63352" lon="5.20807">
        <ele>126.599998</ele>
        <time>2018-08-27T07:22:58Z</time>
      </trkpt>
      <trkpt lat="43.63318" lon="5.20807">
        <ele>126.400002</ele>
        <time>2018-08-27T07:23:05Z</time>
      </trkpt>
      <trkpt lat="43.63287" lon="5.2082">
        <ele>126</ele>
        <time>2018-08-27T07:23:12Z</time>
      </trkpt>
      <trkpt lat="43.63261" lon="5.20827">
        <ele>125.400002</ele>
        <time>2018-08-27T07:23:17Z</time>
      </trkpt>
      <trkpt lat="43.63246" lon="5.20838">
        <ele>125.400002</ele>
        <time>2018-08-27T07:23:20Z</time>
      </trkpt>
      <trkpt lat="43.63238" lon="5.20848">
        <ele>125.400002</ele>
        <time>2018-08-27T07:23:22Z</time>
      </trkpt>
      <trkpt lat="43.63224" lon="5.20859">
        <ele>124.800003</ele>
        <time>2018-08-27T07:23:25Z</time>
      </trkpt>
      <trkpt lat="43.63199" lon="5.2087">
        <ele>124</ele>
        <time>2018-08-27T07:23:30Z</time>
      </trkpt>
      <trkpt lat="43.63176" lon="5.20875">
        <ele>123.400002</ele>
        <time>2018-08-27T07:23:34Z</time>
      </trkpt>
      <trkpt lat="43.63138" lon="5.20867">
        <ele>123</ele>
        <time>2018-08-27T07:23:41Z</time>
      </trkpt>
      <trkpt lat="43.63116" lon="5.20837">
        <ele>122.800003</ele>
        <time>2018-08-27T07:23:47Z</time>
      </trkpt>
      <trkpt lat="43.63114" lon="5.20829">
        <ele>122.800003</ele>
        <time>2018-08-27T07:23:48Z</time>
      </trkpt>
      <trkpt lat="43.63111" lon="5.20801">
        <ele>122.400002</ele>
        <time>2018-08-27T07:23:52Z</time>
      </trkpt>
      <trkpt lat="43.63122" lon="5.20743">
        <ele>121.199997</ele>
        <time>2018-08-27T07:24:00Z</time>
      </trkpt>
      <trkpt lat="43.63127" lon="5.20704">
        <ele>120.400002</ele>
        <time>2018-08-27T07:24:05Z</time>
      </trkpt>
      <trkpt lat="43.63129" lon="5.20664">
        <ele>120</ele>
        <time>2018-08-27T07:24:10Z</time>
      </trkpt>
      <trkpt lat="43.63125" lon="5.20627">
        <ele>119.199997</ele>
        <time>2018-08-27T07:24:15Z</time>
      </trkpt>
      <trkpt lat="43.63123" lon="5.20604">
        <ele>119.199997</ele>
        <time>2018-08-27T07:24:18Z</time>
      </trkpt>
      <trkpt lat="43.63093" lon="5.20558">
        <ele>119</ele>
        <time>2018-08-27T07:24:26Z</time>
      </trkpt>
      <trkpt lat="43.63073" lon="5.20525">
        <ele>119</ele>
        <time>2018-08-27T07:24:32Z</time>
      </trkpt>
      <trkpt lat="43.63057" lon="5.20503">
        <ele>120</ele>
        <time>2018-08-27T07:24:45Z</time>
      </trkpt>
      <trkpt lat="43.63035" lon="5.20502">
        <ele>120.199997</ele>
        <time>2018-08-27T07:26:11Z</time>
      </trkpt>
      <trkpt lat="43.6299" lon="5.20512">
        <ele>117.400002</ele>
        <time>2018-08-27T07:26:22Z</time>
      </trkpt>
      <trkpt lat="43.62956" lon="5.20518">
        <ele>116.199997</ele>
        <time>2018-08-27T07:26:30Z</time>
      </trkpt>
      <trkpt lat="43.62938" lon="5.2052">
        <ele>115.800003</ele>
        <time>2018-08-27T07:26:34Z</time>
      </trkpt>
      <trkpt lat="43.6292" lon="5.20524">
        <ele>115.599998</ele>
        <time>2018-08-27T07:26:38Z</time>
      </trkpt>
      <trkpt lat="43.62862" lon="5.20512">
        <ele>116.400002</ele>
        <time>2018-08-27T07:26:51Z</time>
      </trkpt>
      <trkpt lat="43.62854" lon="5.20509">
        <ele>116.800003</ele>
        <time>2018-08-27T07:26:53Z</time>
      </trkpt>
      <trkpt lat="43.62824" lon="5.20507">
        <ele>119.199997</ele>
        <time>2018-08-27T07:27:00Z</time>
      </trkpt>
      <trkpt lat="43.62768" lon="5.20509">
        <ele>117.800003</ele>
        <time>2018-08-27T07:27:10Z</time>
      </trkpt>
      <trkpt lat="43.627" lon="5.20509">
        <ele>112.599998</ele>
        <time>2018-08-27T07:27:22Z</time>
      </trkpt>
      <trkpt lat="43.62674" lon="5.20496">
        <ele>113.199997</ele>
        <time>2018-08-27T07:27:28Z</time>
      </trkpt>
      <trkpt lat="43.62666" lon="5.20492">
        <ele>113.400002</ele>
        <time>2018-08-27T07:27:30Z</time>
      </trkpt>
      <trkpt lat="43.62645" lon="5.20488">
        <ele>114.800003</ele>
        <time>2018-08-27T07:27:35Z</time>
      </trkpt>
      <trkpt lat="43.62575" lon="5.20491">
        <ele>118.400002</ele>
        <time>2018-08-27T07:27:51Z</time>
      </trkpt>
      <trkpt lat="43.62549" lon="5.20488">
        <ele>119.800003</ele>
        <time>2018-08-27T07:27:57Z</time>
      </trkpt>
      <trkpt lat="43.62521" lon="5.20493">
        <ele>121.599998</ele>
        <time>2018-08-27T07:28:03Z</time>
      </trkpt>
      <trkpt lat="43.62503" lon="5.20499">
        <ele>122</ele>
        <time>2018-08-27T07:28:07Z</time>
      </trkpt>
      <trkpt lat="43.62488" lon="5.20512">
        <ele>122.400002</ele>
        <time>2018-08-27T07:28:11Z</time>
      </trkpt>
      <trkpt lat="43.62476" lon="5.20524">
        <ele>122.599998</ele>
        <time>2018-08-27T07:28:14Z</time>
      </trkpt>
      <trkpt lat="43.62439" lon="5.20559">
        <ele>124.800003</ele>
        <time>2018-08-27T07:28:23Z</time>
      </trkpt>
      <trkpt lat="43.62397" lon="5.20595">
        <ele>125.800003</ele>
        <time>2018-08-27T07:28:33Z</time>
      </trkpt>
      <trkpt lat="43.62366" lon="5.20605">
        <ele>126.800003</ele>
        <time>2018-08-27T07:28:40Z</time>
      </trkpt>
      <trkpt lat="43.62343" lon="5.20608">
        <ele>127.800003</ele>
        <time>2018-08-27T07:28:45Z</time>
      </trkpt>
      <trkpt lat="43.62326" lon="5.20613">
        <ele>129</ele>
        <time>2018-08-27T07:28:49Z</time>
      </trkpt>
      <trkpt lat="43.62315" lon="5.20623">
        <ele>130.199997</ele>
        <time>2018-08-27T07:28:52Z</time>
      </trkpt>
      <trkpt lat="43.62299" lon="5.20641">
        <ele>131.399994</ele>
        <time>2018-08-27T07:28:56Z</time>
      </trkpt>
      <trkpt lat="43.62273" lon="5.20685">
        <ele>131.600006</ele>
        <time>2018-08-27T07:29:04Z</time>
      </trkpt>
      <trkpt lat="43.62249" lon="5.20698">
        <ele>132.199997</ele>
        <time>2018-08-27T07:29:10Z</time>
      </trkpt>
      <trkpt lat="43.6223" lon="5.20701">
        <ele>134.399994</ele>
        <time>2018-08-27T07:29:18Z</time>
      </trkpt>
      <trkpt lat="43.62222" lon="5.2071">
        <ele>135.399994</ele>
        <time>2018-08-27T07:29:23Z</time>
      </trkpt>
      <trkpt lat="43.62211" lon="5.20716">
        <ele>136</ele>
        <time>2018-08-27T07:29:28Z</time>
      </trkpt>
      <trkpt lat="43.62194" lon="5.20718">
        <ele>137.399994</ele>
        <time>2018-08-27T07:29:34Z</time>
      </trkpt>
      <trkpt lat="43.62189" lon="5.20724">
        <ele>137.800003</ele>
        <time>2018-08-27T07:29:36Z</time>
      </trkpt>
      <trkpt lat="43.62167" lon="5.20772">
        <ele>140</ele>
        <time>2018-08-27T07:29:48Z</time>
      </trkpt>
      <trkpt lat="43.62161" lon="5.20789">
        <ele>141</ele>
        <time>2018-08-27T07:29:52Z</time>
      </trkpt>
      <trkpt lat="43.62151" lon="5.20817">
        <ele>143.199997</ele>
        <time>2018-08-27T07:29:59Z</time>
      </trkpt>
      <trkpt lat="43.62147" lon="5.20849">
        <ele>146</ele>
        <time>2018-08-27T07:30:07Z</time>
      </trkpt>
      <trkpt lat="43.62147" lon="5.20892">
        <ele>150.399994</ele>
        <time>2018-08-27T07:30:19Z</time>
      </trkpt>
      <trkpt lat="43.62144" lon="5.20898">
        <ele>151</ele>
        <time>2018-08-27T07:30:21Z</time>
      </trkpt>
      <trkpt lat="43.6214" lon="5.209">
        <ele>152</ele>
        <time>2018-08-27T07:30:23Z</time>
      </trkpt>
      <trkpt lat="43.62132" lon="5.20898">
        <ele>153.199997</ele>
        <time>2018-08-27T07:30:26Z</time>
      </trkpt>
      <trkpt lat="43.62126" lon="5.20895">
        <ele>154.600006</ele>
        <time>2018-08-27T07:30:28Z</time>
      </trkpt>
      <trkpt lat="43.62116" lon="5.20894">
        <ele>156</ele>
        <time>2018-08-27T07:30:31Z</time>
      </trkpt>
      <trkpt lat="43.62102" lon="5.20897">
        <ele>157.399994</ele>
        <time>2018-08-27T07:30:35Z</time>
      </trkpt>
      <trkpt lat="43.62083" lon="5.20907">
        <ele>158.600006</ele>
        <time>2018-08-27T07:30:40Z</time>
      </trkpt>
      <trkpt lat="43.62067" lon="5.20913">
        <ele>158.600006</ele>
        <time>2018-08-27T07:30:43Z</time>
      </trkpt>
      <trkpt lat="43.62046" lon="5.20913">
        <ele>158.199997</ele>
        <time>2018-08-27T07:30:47Z</time>
      </trkpt>
      <trkpt lat="43.62024" lon="5.20918">
        <ele>157.800003</ele>
        <time>2018-08-27T07:30:53Z</time>
      </trkpt>
      <trkpt lat="43.62022" lon="5.20906">
        <ele>157.399994</ele>
        <time>2018-08-27T07:30:56Z</time>
      </trkpt>
      <trkpt lat="43.62024" lon="5.20871">
        <ele>157.199997</ele>
        <time>2018-08-27T07:31:01Z</time>
      </trkpt>
      <trkpt lat="43.62034" lon="5.20829">
        <ele>156.199997</ele>
        <time>2018-08-27T07:31:07Z</time>
      </trkpt>
      <trkpt lat="43.62045" lon="5.20789">
        <ele>155.399994</ele>
        <time>2018-08-27T07:31:13Z</time>
      </trkpt>
      <trkpt lat="43.62049" lon="5.20769">
        <ele>155.399994</ele>
        <time>2018-08-27T07:31:16Z</time>
      </trkpt>
      <trkpt lat="43.62051" lon="5.20517">
        <ele>153.199997</ele>
        <time>2018-08-27T07:31:49Z</time>
      </trkpt>
      <trkpt lat="43.62035" lon="5.20481">
        <ele>151.399994</ele>
        <time>2018-08-27T07:31:54Z</time>
      </trkpt>
      <trkpt lat="43.62024" lon="5.20466">
        <ele>150.600006</ele>
        <time>2018-08-27T07:31:57Z</time>
      </trkpt>
      <trkpt lat="43.62019" lon="5.20451">
        <ele>150.199997</ele>
        <time>2018-08-27T07:31:59Z</time>
      </trkpt>
      <trkpt lat="43.62025" lon="5.20323">
        <ele>149.399994</ele>
        <time>2018-08-27T07:32:15Z</time>
      </trkpt>
      <trkpt lat="43.62039" lon="5.20299">
        <ele>149.399994</ele>
        <time>2018-08-27T07:32:19Z</time>
      </trkpt>
      <trkpt lat="43.62047" lon="5.20289">
        <ele>149.199997</ele>
        <time>2018-08-27T07:32:21Z</time>
      </trkpt>
      <trkpt lat="43.62075" lon="5.20225">
        <ele>149.199997</ele>
        <time>2018-08-27T07:32:31Z</time>
      </trkpt>
      <trkpt lat="43.621" lon="5.20185">
        <ele>149.199997</ele>
        <time>2018-08-27T07:32:39Z</time>
      </trkpt>
      <trkpt lat="43.621" lon="5.20169">
        <ele>149.199997</ele>
        <time>2018-08-27T07:32:41Z</time>
      </trkpt>
      <trkpt lat="43.62101" lon="5.20129">
        <ele>147.399994</ele>
        <time>2018-08-27T07:32:46Z</time>
      </trkpt>
      <trkpt lat="43.62104" lon="5.20097">
        <ele>147</ele>
        <time>2018-08-27T07:32:50Z</time>
      </trkpt>
      <trkpt lat="43.62105" lon="5.20014">
        <ele>146.399994</ele>
        <time>2018-08-27T07:33:00Z</time>
      </trkpt>
      <trkpt lat="43.62107" lon="5.19989">
        <ele>146</ele>
        <time>2018-08-27T07:33:03Z</time>
      </trkpt>
      <trkpt lat="43.62103" lon="5.19962">
        <ele>145.600006</ele>
        <time>2018-08-27T07:33:06Z</time>
      </trkpt>
      <trkpt lat="43.62103" lon="5.19926">
        <ele>144.800003</ele>
        <time>2018-08-27T07:33:10Z</time>
      </trkpt>
      <trkpt lat="43.62099" lon="5.1982">
        <ele>141.399994</ele>
        <time>2018-08-27T07:33:22Z</time>
      </trkpt>
      <trkpt lat="43.621" lon="5.19796">
        <ele>141.199997</ele>
        <time>2018-08-27T07:33:25Z</time>
      </trkpt>
      <trkpt lat="43.62095" lon="5.19715">
        <ele>141.399994</ele>
        <time>2018-08-27T07:33:35Z</time>
      </trkpt>
      <trkpt lat="43.62097" lon="5.19667">
        <ele>141.800003</ele>
        <time>2018-08-27T07:33:41Z</time>
      </trkpt>
      <trkpt lat="43.62119" lon="5.19596">
        <ele>140.800003</ele>
        <time>2018-08-27T07:33:49Z</time>
      </trkpt>
      <trkpt lat="43.62124" lon="5.19565">
        <ele>138.600006</ele>
        <time>2018-08-27T07:33:52Z</time>
      </trkpt>
      <trkpt lat="43.62132" lon="5.19534">
        <ele>137.399994</ele>
        <time>2018-08-27T07:33:55Z</time>
      </trkpt>
      <trkpt lat="43.62139" lon="5.19489">
        <ele>136</ele>
        <time>2018-08-27T07:33:59Z</time>
      </trkpt>
      <trkpt lat="43.62152" lon="5.19433">
        <ele>133.600006</ele>
        <time>2018-08-27T07:34:04Z</time>
      </trkpt>
      <trkpt lat="43.62165" lon="5.19402">
        <ele>131.800003</ele>
        <time>2018-08-27T07:34:07Z</time>
      </trkpt>
      <trkpt lat="43.62169" lon="5.19391">
        <ele>131.399994</ele>
        <time>2018-08-27T07:34:08Z</time>
      </trkpt>
      <trkpt lat="43.62177" lon="5.19359">
        <ele>130</ele>
        <time>2018-08-27T07:34:12Z</time>
      </trkpt>
      <trkpt lat="43.62172" lon="5.1932">
        <ele>130.399994</ele>
        <time>2018-08-27T07:34:19Z</time>
      </trkpt>
      <trkpt lat="43.62168" lon="5.1931">
        <ele>131.600006</ele>
        <time>2018-08-27T07:34:21Z</time>
      </trkpt>
      <trkpt lat="43.62159" lon="5.193">
        <ele>133</ele>
        <time>2018-08-27T07:34:24Z</time>
      </trkpt>
      <trkpt lat="43.6215" lon="5.193">
        <ele>134.399994</ele>
        <time>2018-08-27T07:34:26Z</time>
      </trkpt>
      <trkpt lat="43.62137" lon="5.19308">
        <ele>135.399994</ele>
        <time>2018-08-27T07:34:29Z</time>
      </trkpt>
      <trkpt lat="43.62115" lon="5.19308">
        <ele>136.600006</ele>
        <time>2018-08-27T07:34:34Z</time>
      </trkpt>
      <trkpt lat="43.62079" lon="5.19322">
        <ele>137.199997</ele>
        <time>2018-08-27T07:34:41Z</time>
      </trkpt>
      <trkpt lat="43.62073" lon="5.19322">
        <ele>137.399994</ele>
        <time>2018-08-27T07:34:42Z</time>
      </trkpt>
      <trkpt lat="43.62044" lon="5.19283">
        <ele>136.600006</ele>
        <time>2018-08-27T07:34:50Z</time>
      </trkpt>
      <trkpt lat="43.62043" lon="5.19275">
        <ele>136.600006</ele>
        <time>2018-08-27T07:34:51Z</time>
      </trkpt>
      <trkpt lat="43.62044" lon="5.19232">
        <ele>136.399994</ele>
        <time>2018-08-27T07:34:56Z</time>
      </trkpt>
      <trkpt lat="43.62046" lon="5.19206">
        <ele>135.399994</ele>
        <time>2018-08-27T07:34:59Z</time>
      </trkpt>
      <trkpt lat="43.62051" lon="5.19179">
        <ele>134.399994</ele>
        <time>2018-08-27T07:35:02Z</time>
      </trkpt>
      <trkpt lat="43.62053" lon="5.19161">
        <ele>133.600006</ele>
        <time>2018-08-27T07:35:04Z</time>
      </trkpt>
      <trkpt lat="43.62051" lon="5.19135">
        <ele>133.199997</ele>
        <time>2018-08-27T07:35:07Z</time>
      </trkpt>
      <trkpt lat="43.62056" lon="5.19103">
        <ele>132.199997</ele>
        <time>2018-08-27T07:35:11Z</time>
      </trkpt>
      <trkpt lat="43.62056" lon="5.19095">
        <ele>132.199997</ele>
        <time>2018-08-27T07:35:12Z</time>
      </trkpt>
      <trkpt lat="43.62054" lon="5.19057">
        <ele>132.199997</ele>
        <time>2018-08-27T07:35:17Z</time>
      </trkpt>
      <trkpt lat="43.62044" lon="5.18994">
        <ele>132.600006</ele>
        <time>2018-08-27T07:35:25Z</time>
      </trkpt>
      <trkpt lat="43.62045" lon="5.18942">
        <ele>132.399994</ele>
        <time>2018-08-27T07:35:31Z</time>
      </trkpt>
      <trkpt lat="43.62042" lon="5.18907">
        <ele>131.399994</ele>
        <time>2018-08-27T07:35:35Z</time>
      </trkpt>
      <trkpt lat="43.62042" lon="5.18898">
        <ele>131.199997</ele>
        <time>2018-08-27T07:35:36Z</time>
      </trkpt>
      <trkpt lat="43.62045" lon="5.18882">
        <ele>130</ele>
        <time>2018-08-27T07:35:38Z</time>
      </trkpt>
      <trkpt lat="43.62032" lon="5.18828">
        <ele>128.800003</ele>
        <time>2018-08-27T07:35:45Z</time>
      </trkpt>
      <trkpt lat="43.62028" lon="5.18801">
        <ele>127.800003</ele>
        <time>2018-08-27T07:35:49Z</time>
      </trkpt>
      <trkpt lat="43.62037" lon="5.18764">
        <ele>125.199997</ele>
        <time>2018-08-27T07:35:54Z</time>
      </trkpt>
      <trkpt lat="43.62053" lon="5.1872">
        <ele>123.400002</ele>
        <time>2018-08-27T07:36:00Z</time>
      </trkpt>
      <trkpt lat="43.62064" lon="5.18681">
        <ele>122.800003</ele>
        <time>2018-08-27T07:36:05Z</time>
      </trkpt>
      <trkpt lat="43.62082" lon="5.18605">
        <ele>122</ele>
        <time>2018-08-27T07:36:15Z</time>
      </trkpt>
      <trkpt lat="43.62085" lon="5.18599">
        <ele>122</ele>
        <time>2018-08-27T07:36:16Z</time>
      </trkpt>
      <trkpt lat="43.62111" lon="5.18567">
        <ele>122</ele>
        <time>2018-08-27T07:36:22Z</time>
      </trkpt>
      <trkpt lat="43.62121" lon="5.18539">
        <ele>122</ele>
        <time>2018-08-27T07:36:26Z</time>
      </trkpt>
      <trkpt lat="43.62127" lon="5.18507">
        <ele>122</ele>
        <time>2018-08-27T07:36:30Z</time>
      </trkpt>
      <trkpt lat="43.62128" lon="5.18475">
        <ele>122</ele>
        <time>2018-08-27T07:36:34Z</time>
      </trkpt>
      <trkpt lat="43.62133" lon="5.18453">
        <ele>122</ele>
        <time>2018-08-27T07:36:37Z</time>
      </trkpt>
      <trkpt lat="43.62155" lon="5.18381">
        <ele>121.800003</ele>
        <time>2018-08-27T07:36:47Z</time>
      </trkpt>
      <trkpt lat="43.62179" lon="5.18309">
        <ele>121.800003</ele>
        <time>2018-08-27T07:36:58Z</time>
      </trkpt>
      <trkpt lat="43.62185" lon="5.1828">
        <ele>121.800003</ele>
        <time>2018-08-27T07:37:02Z</time>
      </trkpt>
      <trkpt lat="43.62195" lon="5.18261">
        <ele>122.800003</ele>
        <time>2018-08-27T07:37:05Z</time>
      </trkpt>
      <trkpt lat="43.62211" lon="5.18221">
        <ele>123.400002</ele>
        <time>2018-08-27T07:37:11Z</time>
      </trkpt>
      <trkpt lat="43.6222" lon="5.18202">
        <ele>123.599998</ele>
        <time>2018-08-27T07:37:14Z</time>
      </trkpt>
      <trkpt lat="43.62224" lon="5.18181">
        <ele>123.800003</ele>
        <time>2018-08-27T07:37:17Z</time>
      </trkpt>
      <trkpt lat="43.62229" lon="5.18097">
        <ele>124.199997</ele>
        <time>2018-08-27T07:37:27Z</time>
      </trkpt>
      <trkpt lat="43.62227" lon="5.18071">
        <ele>124.199997</ele>
        <time>2018-08-27T07:37:30Z</time>
      </trkpt>
      <trkpt lat="43.62226" lon="5.18023">
        <ele>123.400002</ele>
        <time>2018-08-27T07:37:36Z</time>
      </trkpt>
      <trkpt lat="43.6222" lon="5.17984">
        <ele>123.400002</ele>
        <time>2018-08-27T07:37:41Z</time>
      </trkpt>
      <trkpt lat="43.62198" lon="5.17918">
        <ele>123.800003</ele>
        <time>2018-08-27T07:37:50Z</time>
      </trkpt>
      <trkpt lat="43.62197" lon="5.17892">
        <ele>123.800003</ele>
        <time>2018-08-27T07:37:53Z</time>
      </trkpt>
      <trkpt lat="43.62203" lon="5.17856">
        <ele>123.400002</ele>
        <time>2018-08-27T07:37:57Z</time>
      </trkpt>
      <trkpt lat="43.62209" lon="5.1781">
        <ele>121.800003</ele>
        <time>2018-08-27T07:38:02Z</time>
      </trkpt>
      <trkpt lat="43.6221" lon="5.17772">
        <ele>119.599998</ele>
        <time>2018-08-27T07:38:06Z</time>
      </trkpt>
      <trkpt lat="43.62214" lon="5.17755">
        <ele>119.199997</ele>
        <time>2018-08-27T07:38:08Z</time>
      </trkpt>
      <trkpt lat="43.62226" lon="5.17725">
        <ele>118.199997</ele>
        <time>2018-08-27T07:38:12Z</time>
      </trkpt>
      <trkpt lat="43.62232" lon="5.17712">
        <ele>117.599998</ele>
        <time>2018-08-27T07:38:14Z</time>
      </trkpt>
      <trkpt lat="43.6224" lon="5.17674">
        <ele>117.400002</ele>
        <time>2018-08-27T07:38:19Z</time>
      </trkpt>
      <trkpt lat="43.62237" lon="5.17641">
        <ele>117.599998</ele>
        <time>2018-08-27T07:38:23Z</time>
      </trkpt>
      <trkpt lat="43.62225" lon="5.17554">
        <ele>117</ele>
        <time>2018-08-27T07:38:33Z</time>
      </trkpt>
      <trkpt lat="43.62228" lon="5.1754">
        <ele>116.599998</ele>
        <time>2018-08-27T07:38:35Z</time>
      </trkpt>
      <trkpt lat="43.62236" lon="5.17516">
        <ele>116.400002</ele>
        <time>2018-08-27T07:38:39Z</time>
      </trkpt>
      <trkpt lat="43.62259" lon="5.17476">
        <ele>117.599998</ele>
        <time>2018-08-27T07:38:47Z</time>
      </trkpt>
      <trkpt lat="43.6227" lon="5.17432">
        <ele>119.400002</ele>
        <time>2018-08-27T07:38:54Z</time>
      </trkpt>
      <trkpt lat="43.62277" lon="5.17414">
        <ele>119.400002</ele>
        <time>2018-08-27T07:38:57Z</time>
      </trkpt>
      <trkpt lat="43.62296" lon="5.1738">
        <ele>119.400002</ele>
        <time>2018-08-27T07:39:02Z</time>
      </trkpt>
      <trkpt lat="43.62325" lon="5.17368">
        <ele>118</ele>
        <time>2018-08-27T07:39:07Z</time>
      </trkpt>
      <trkpt lat="43.62338" lon="5.17367">
        <ele>117</ele>
        <time>2018-08-27T07:39:09Z</time>
      </trkpt>
      <trkpt lat="43.62349" lon="5.1736">
        <ele>115.800003</ele>
        <time>2018-08-27T07:39:11Z</time>
      </trkpt>
      <trkpt lat="43.62355" lon="5.17348">
        <ele>114.199997</ele>
        <time>2018-08-27T07:39:13Z</time>
      </trkpt>
      <trkpt lat="43.62355" lon="5.17325">
        <ele>111</ele>
        <time>2018-08-27T07:39:17Z</time>
      </trkpt>
      <trkpt lat="43.62358" lon="5.173">
        <ele>108.400002</ele>
        <time>2018-08-27T07:39:23Z</time>
      </trkpt>
      <trkpt lat="43.62364" lon="5.17267">
        <ele>108</ele>
        <time>2018-08-27T07:39:30Z</time>
      </trkpt>
      <trkpt lat="43.62367" lon="5.17239">
        <ele>107.599998</ele>
        <time>2018-08-27T07:39:34Z</time>
      </trkpt>
      <trkpt lat="43.62367" lon="5.17222">
        <ele>106.599998</ele>
        <time>2018-08-27T07:39:36Z</time>
      </trkpt>
      <trkpt lat="43.62379" lon="5.17161">
        <ele>103.400002</ele>
        <time>2018-08-27T07:39:43Z</time>
      </trkpt>
      <trkpt lat="43.6238" lon="5.17156">
        <ele>102.800003</ele>
        <time>2018-08-27T07:39:44Z</time>
      </trkpt>
      <trkpt lat="43.62378" lon="5.17144">
        <ele>101</ele>
        <time>2018-08-27T07:39:47Z</time>
      </trkpt>
      <trkpt lat="43.62382" lon="5.1713">
        <ele>99.800003</ele>
        <time>2018-08-27T07:39:50Z</time>
      </trkpt>
      <trkpt lat="43.62386" lon="5.17081">
        <ele>98.800003</ele>
        <time>2018-08-27T07:39:57Z</time>
      </trkpt>
      <trkpt lat="43.62407" lon="5.1702">
        <ele>96.400002</ele>
        <time>2018-08-27T07:40:05Z</time>
      </trkpt>
      <trkpt lat="43.62426" lon="5.17003">
        <ele>95.400002</ele>
        <time>2018-08-27T07:40:09Z</time>
      </trkpt>
      <trkpt lat="43.62431" lon="5.17">
        <ele>95</ele>
        <time>2018-08-27T07:40:10Z</time>
      </trkpt>
      <trkpt lat="43.62456" lon="5.1699">
        <ele>94.599998</ele>
        <time>2018-08-27T07:40:16Z</time>
      </trkpt>
      <trkpt lat="43.6246" lon="5.1698">
        <ele>94.599998</ele>
        <time>2018-08-27T07:40:18Z</time>
      </trkpt>
      <trkpt lat="43.62479" lon="5.16916">
        <ele>94.599998</ele>
        <time>2018-08-27T07:40:28Z</time>
      </trkpt>
      <trkpt lat="43.62486" lon="5.16906">
        <ele>94.599998</ele>
        <time>2018-08-27T07:40:30Z</time>
      </trkpt>
      <trkpt lat="43.62499" lon="5.16877">
        <ele>94.199997</ele>
        <time>2018-08-27T07:40:37Z</time>
      </trkpt>
      <trkpt lat="43.62506" lon="5.16872">
        <ele>94</ele>
        <time>2018-08-27T07:40:40Z</time>
      </trkpt>
      <trkpt lat="43.62509" lon="5.16852">
        <ele>93.599998</ele>
        <time>2018-08-27T07:40:44Z</time>
      </trkpt>
      <trkpt lat="43.62502" lon="5.16756">
        <ele>91.800003</ele>
        <time>2018-08-27T07:40:56Z</time>
      </trkpt>
      <trkpt lat="43.62492" lon="5.16682">
        <ele>91</ele>
        <time>2018-08-27T07:41:05Z</time>
      </trkpt>
      <trkpt lat="43.62488" lon="5.16666">
        <ele>90.599998</ele>
        <time>2018-08-27T07:41:07Z</time>
      </trkpt>
      <trkpt lat="43.6247" lon="5.16599">
        <ele>90</ele>
        <time>2018-08-27T07:41:16Z</time>
      </trkpt>
      <trkpt lat="43.6244" lon="5.1654">
        <ele>89.800003</ele>
        <time>2018-08-27T07:41:25Z</time>
      </trkpt>
      <trkpt lat="43.62435" lon="5.16518">
        <ele>89.400002</ele>
        <time>2018-08-27T07:41:28Z</time>
      </trkpt>
      <trkpt lat="43.62425" lon="5.16454">
        <ele>88.800003</ele>
        <time>2018-08-27T07:41:38Z</time>
      </trkpt>
      <trkpt lat="43.6246" lon="5.16441">
        <ele>88.599998</ele>
        <time>2018-08-27T07:41:46Z</time>
      </trkpt>
      <trkpt lat="43.62554" lon="5.16412">
        <ele>88</ele>
        <time>2018-08-27T07:42:03Z</time>
      </trkpt>
      <trkpt lat="43.62602" lon="5.16395">
        <ele>88</ele>
        <time>2018-08-27T07:42:12Z</time>
      </trkpt>
      <trkpt lat="43.62627" lon="5.16394">
        <ele>87.800003</ele>
        <time>2018-08-27T07:42:18Z</time>
      </trkpt>
      <trkpt lat="43.62648" lon="5.16468">
        <ele>88.199997</ele>
        <time>2018-08-27T07:42:32Z</time>
      </trkpt>
      <trkpt lat="43.6268" lon="5.16538">
        <ele>88.199997</ele>
        <time>2018-08-27T07:42:43Z</time>
      </trkpt>
      <trkpt lat="43.62713" lon="5.16594">
        <ele>88.599998</ele>
        <time>2018-08-27T07:42:53Z</time>
      </trkpt>
      <trkpt lat="43.62728" lon="5.16611">
        <ele>89</ele>
        <time>2018-08-27T07:42:59Z</time>
      </trkpt>
      <trkpt lat="43.62752" lon="5.1661">
        <ele>89.599998</ele>
        <time>2018-08-27T07:43:04Z</time>
      </trkpt>
      <trkpt lat="43.62761" lon="5.16604">
        <ele>90</ele>
        <time>2018-08-27T07:43:06Z</time>
      </trkpt>
      <trkpt lat="43.62845" lon="5.16613">
        <ele>91.400002</ele>
        <time>2018-08-27T07:43:22Z</time>
      </trkpt>
      <trkpt lat="43.62893" lon="5.1661">
        <ele>91.599998</ele>
        <time>2018-08-27T07:43:30Z</time>
      </trkpt>
      <trkpt lat="43.62952" lon="5.16603">
        <ele>90.599998</ele>
        <time>2018-08-27T07:43:39Z</time>
      </trkpt>
      <trkpt lat="43.62959" lon="5.16603">
        <ele>90.400002</ele>
        <time>2018-08-27T07:43:40Z</time>
      </trkpt>
      <trkpt lat="43.62987" lon="5.16615">
        <ele>89.599998</ele>
        <time>2018-08-27T07:43:45Z</time>
      </trkpt>
      <trkpt lat="43.62996" lon="5.16553">
        <ele>89.199997</ele>
        <time>2018-08-27T07:43:55Z</time>
      </trkpt>
      <trkpt lat="43.62994" lon="5.16536">
        <ele>89.199997</ele>
        <time>2018-08-27T07:43:57Z</time>
      </trkpt>
      <trkpt lat="43.62994" lon="5.16447">
        <ele>88.599998</ele>
        <time>2018-08-27T07:44:07Z</time>
      </trkpt>
      <trkpt lat="43.62998" lon="5.16338">
        <ele>87.599998</ele>
        <time>2018-08-27T07:44:19Z</time>
      </trkpt>
      <trkpt lat="43.63" lon="5.16183">
        <ele>86.800003</ele>
        <time>2018-08-27T07:44:37Z</time>
      </trkpt>
      <trkpt lat="43.63003" lon="5.1615">
        <ele>86.800003</ele>
        <time>2018-08-27T07:44:41Z</time>
      </trkpt>
      <trkpt lat="43.63005" lon="5.16124">
        <ele>86.400002</ele>
        <time>2018-08-27T07:44:44Z</time>
      </trkpt>
      <trkpt lat="43.63015" lon="5.16046">
        <ele>86.199997</ele>
        <time>2018-08-27T07:44:53Z</time>
      </trkpt>
      <trkpt lat="43.63039" lon="5.15893">
        <ele>85.800003</ele>
        <time>2018-08-27T07:45:11Z</time>
      </trkpt>
      <trkpt lat="43.63048" lon="5.15852">
        <ele>85.400002</ele>
        <time>2018-08-27T07:45:16Z</time>
      </trkpt>
      <trkpt lat="43.63063" lon="5.15717">
        <ele>84.599998</ele>
        <time>2018-08-27T07:45:33Z</time>
      </trkpt>
      <trkpt lat="43.63088" lon="5.15703">
        <ele>84.599998</ele>
        <time>2018-08-27T07:45:38Z</time>
      </trkpt>
      <trkpt lat="43.63184" lon="5.15682">
        <ele>84.400002</ele>
        <time>2018-08-27T07:45:55Z</time>
      </trkpt>
      <trkpt lat="43.63205" lon="5.15692">
        <ele>84.400002</ele>
        <time>2018-08-27T07:45:59Z</time>
      </trkpt>
      <trkpt lat="43.63215" lon="5.157">
        <ele>84.400002</ele>
        <time>2018-08-27T07:46:01Z</time>
      </trkpt>
      <trkpt lat="43.63225" lon="5.15707">
        <ele>84.400002</ele>
        <time>2018-08-27T07:46:03Z</time>
      </trkpt>
      <trkpt lat="43.63253" lon="5.15706">
        <ele>84.599998</ele>
        <time>2018-08-27T07:46:08Z</time>
      </trkpt>
      <trkpt lat="43.63309" lon="5.15694">
        <ele>85</ele>
        <time>2018-08-27T07:46:18Z</time>
      </trkpt>
      <trkpt lat="43.63345" lon="5.15665">
        <ele>85.599998</ele>
        <time>2018-08-27T07:46:31Z</time>
      </trkpt>
      <trkpt lat="43.63345" lon="5.1565">
        <ele>86.800003</ele>
        <time>2018-08-27T07:46:34Z</time>
      </trkpt>
      <trkpt lat="43.63347" lon="5.15646">
        <ele>87</ele>
        <time>2018-08-27T07:46:35Z</time>
      </trkpt>
      <trkpt lat="43.63394" lon="5.15687">
        <ele>87</ele>
        <time>2018-08-27T07:46:47Z</time>
      </trkpt>
      <trkpt lat="43.63437" lon="5.15721">
        <ele>86.800003</ele>
        <time>2018-08-27T07:46:57Z</time>
      </trkpt>
      <trkpt lat="43.63479" lon="5.1576">
        <ele>87.400002</ele>
        <time>2018-08-27T07:47:07Z</time>
      </trkpt>
      <trkpt lat="43.63504" lon="5.15803">
        <ele>88.400002</ele>
        <time>2018-08-27T07:47:15Z</time>
      </trkpt>
      <trkpt lat="43.63511" lon="5.15812">
        <ele>89.199997</ele>
        <time>2018-08-27T07:47:17Z</time>
      </trkpt>
      <trkpt lat="43.6352" lon="5.15844">
        <ele>90.400002</ele>
        <time>2018-08-27T07:47:22Z</time>
      </trkpt>
      <trkpt lat="43.63534" lon="5.15885">
        <ele>91.599998</ele>
        <time>2018-08-27T07:47:29Z</time>
      </trkpt>
      <trkpt lat="43.63537" lon="5.1596">
        <ele>92.400002</ele>
        <time>2018-08-27T07:47:40Z</time>
      </trkpt>
      <trkpt lat="43.63537" lon="5.16021">
        <ele>93.199997</ele>
        <time>2018-08-27T07:47:49Z</time>
      </trkpt>
      <trkpt lat="43.63543" lon="5.16068">
        <ele>93.599998</ele>
        <time>2018-08-27T07:47:56Z</time>
      </trkpt>
      <trkpt lat="43.63548" lon="5.16147">
        <ele>94.599998</ele>
        <time>2018-08-27T07:48:08Z</time>
      </trkpt>
      <trkpt lat="43.63551" lon="5.16233">
        <ele>95.800003</ele>
        <time>2018-08-27T07:48:21Z</time>
      </trkpt>
      <trkpt lat="43.63553" lon="5.16279">
        <ele>96.400002</ele>
        <time>2018-08-27T07:48:30Z</time>
      </trkpt>
      <trkpt lat="43.63561" lon="5.16327">
        <ele>96.800003</ele>
        <time>2018-08-27T07:48:37Z</time>
      </trkpt>
      <trkpt lat="43.63567" lon="5.16361">
        <ele>97.400002</ele>
        <time>2018-08-27T07:48:42Z</time>
      </trkpt>
      <trkpt lat="43.63588" lon="5.1644">
        <ele>98</ele>
        <time>2018-08-27T07:48:54Z</time>
      </trkpt>
      <trkpt lat="43.63616" lon="5.16511">
        <ele>98.599998</ele>
        <time>2018-08-27T07:49:06Z</time>
      </trkpt>
      <trkpt lat="43.63624" lon="5.16527">
        <ele>99</ele>
        <time>2018-08-27T07:49:09Z</time>
      </trkpt>
      <trkpt lat="43.63663" lon="5.1658">
        <ele>99.800003</ele>
        <time>2018-08-27T07:49:24Z</time>
      </trkpt>
      <trkpt lat="43.63688" lon="5.16598">
        <ele>101.199997</ele>
        <time>2018-08-27T07:49:32Z</time>
      </trkpt>
      <trkpt lat="43.637" lon="5.16609">
        <ele>102.199997</ele>
        <time>2018-08-27T07:49:38Z</time>
      </trkpt>
      <trkpt lat="43.63708" lon="5.16613">
        <ele>103.199997</ele>
        <time>2018-08-27T07:49:42Z</time>
      </trkpt>
      <trkpt lat="43.63719" lon="5.16622">
        <ele>104</ele>
        <time>2018-08-27T07:51:10Z</time>
      </trkpt>
      <trkpt lat="43.63738" lon="5.16649">
        <ele>103.599998</ele>
        <time>2018-08-27T07:51:20Z</time>
      </trkpt>
      <trkpt lat="43.63743" lon="5.16659">
        <ele>103.599998</ele>
        <time>2018-08-27T07:51:25Z</time>
      </trkpt>
      <trkpt lat="43.63758" lon="5.16656">
        <ele>105.800003</ele>
        <time>2018-08-27T07:51:31Z</time>
      </trkpt>
      <trkpt lat="43.63789" lon="5.16659">
        <ele>106.800003</ele>
        <time>2018-08-27T07:51:41Z</time>
      </trkpt>
      <trkpt lat="43.6384" lon="5.16681">
        <ele>107.400002</ele>
        <time>2018-08-27T07:51:55Z</time>
      </trkpt>
      <trkpt lat="43.639" lon="5.16697">
        <ele>106.800003</ele>
        <time>2018-08-27T07:52:08Z</time>
      </trkpt>
      <trkpt lat="43.63938" lon="5.16701">
        <ele>105.800003</ele>
        <time>2018-08-27T07:52:17Z</time>
      </trkpt>
      <trkpt lat="43.63964" lon="5.16715">
        <ele>104.800003</ele>
        <time>2018-08-27T07:52:24Z</time>
      </trkpt>
      <trkpt lat="43.63974" lon="5.16733">
        <ele>104.400002</ele>
        <time>2018-08-27T07:52:28Z</time>
      </trkpt>
      <trkpt lat="43.6398" lon="5.16753">
        <ele>103.599998</ele>
        <time>2018-08-27T07:52:31Z</time>
      </trkpt>
      <trkpt lat="43.63989" lon="5.16794">
        <ele>103.599998</ele>
        <time>2018-08-27T07:52:37Z</time>
      </trkpt>
      <trkpt lat="43.63992" lon="5.16827">
        <ele>103.800003</ele>
        <time>2018-08-27T07:52:42Z</time>
      </trkpt>
      <trkpt lat="43.63992" lon="5.1685">
        <ele>104.400002</ele>
        <time>2018-08-27T07:52:46Z</time>
      </trkpt>
      <trkpt lat="43.63994" lon="5.1686">
        <ele>104.800003</ele>
        <time>2018-08-27T07:52:48Z</time>
      </trkpt>
      <trkpt lat="43.64009" lon="5.16872">
        <ele>106</ele>
        <time>2018-08-27T07:52:52Z</time>
      </trkpt>
      <trkpt lat="43.64019" lon="5.16874">
        <ele>106.199997</ele>
        <time>2018-08-27T07:52:54Z</time>
      </trkpt>
      <trkpt lat="43.64089" lon="5.16911">
        <ele>106.599998</ele>
        <time>2018-08-27T07:53:08Z</time>
      </trkpt>
      <trkpt lat="43.64134" lon="5.16945">
        <ele>108.199997</ele>
        <time>2018-08-27T07:53:19Z</time>
      </trkpt>
      <trkpt lat="43.64153" lon="5.16961">
        <ele>110.400002</ele>
        <time>2018-08-27T07:53:24Z</time>
      </trkpt>
      <trkpt lat="43.64164" lon="5.16982">
        <ele>111.400002</ele>
        <time>2018-08-27T07:53:29Z</time>
      </trkpt>
      <trkpt lat="43.64165" lon="5.16995">
        <ele>111.800003</ele>
        <time>2018-08-27T07:53:32Z</time>
      </trkpt>
      <trkpt lat="43.64154" lon="5.17022">
        <ele>112.400002</ele>
        <time>2018-08-27T07:53:38Z</time>
      </trkpt>
      <trkpt lat="43.64134" lon="5.17056">
        <ele>113</ele>
        <time>2018-08-27T07:53:46Z</time>
      </trkpt>
      <trkpt lat="43.64119" lon="5.17062">
        <ele>113.599998</ele>
        <time>2018-08-27T07:53:50Z</time>
      </trkpt>
      <trkpt lat="43.64108" lon="5.17069">
        <ele>114</ele>
        <time>2018-08-27T07:53:53Z</time>
      </trkpt>
      <trkpt lat="43.64091" lon="5.17088">
        <ele>114.599998</ele>
        <time>2018-08-27T07:53:59Z</time>
      </trkpt>
      <trkpt lat="43.64086" lon="5.17108">
        <ele>114.800003</ele>
        <time>2018-08-27T07:54:03Z</time>
      </trkpt>
      <trkpt lat="43.64081" lon="5.17144">
        <ele>115.199997</ele>
        <time>2018-08-27T07:54:10Z</time>
      </trkpt>
      <trkpt lat="43.64088" lon="5.17167">
        <ele>115.599998</ele>
        <time>2018-08-27T07:54:15Z</time>
      </trkpt>
      <trkpt lat="43.64101" lon="5.1727">
        <ele>115.800003</ele>
        <time>2018-08-27T07:54:34Z</time>
      </trkpt>
      <trkpt lat="43.64102" lon="5.17294">
        <ele>115.800003</ele>
        <time>2018-08-27T07:54:39Z</time>
      </trkpt>
      <trkpt lat="43.64105" lon="5.17309">
        <ele>116</ele>
        <time>2018-08-27T07:54:42Z</time>
      </trkpt>
      <trkpt lat="43.64108" lon="5.17321">
        <ele>116.199997</ele>
        <time>2018-08-27T07:54:45Z</time>
      </trkpt>
      <trkpt lat="43.6412" lon="5.17334">
        <ele>116.599998</ele>
        <time>2018-08-27T07:54:49Z</time>
      </trkpt>
      <trkpt lat="43.64128" lon="5.17351">
        <ele>116.599998</ele>
        <time>2018-08-27T07:54:53Z</time>
      </trkpt>
      <trkpt lat="43.64138" lon="5.17364">
        <ele>116.599998</ele>
        <time>2018-08-27T07:54:57Z</time>
      </trkpt>
      <trkpt lat="43.64165" lon="5.17385">
        <ele>117.400002</ele>
        <time>2018-08-27T07:55:04Z</time>
      </trkpt>
      <trkpt lat="43.6418" lon="5.1739">
        <ele>117.599998</ele>
        <time>2018-08-27T07:55:09Z</time>
      </trkpt>
      <trkpt lat="43.64224" lon="5.17384">
        <ele>116.599998</ele>
        <time>2018-08-27T07:55:30Z</time>
      </trkpt>
      <trkpt lat="43.64232" lon="5.17381">
        <ele>116.199997</ele>
        <time>2018-08-27T07:55:32Z</time>
      </trkpt>
      <trkpt lat="43.64256" lon="5.17377">
        <ele>115.599998</ele>
        <time>2018-08-27T07:55:38Z</time>
      </trkpt>
      <trkpt lat="43.64276" lon="5.17386">
        <ele>115</ele>
        <time>2018-08-27T07:55:43Z</time>
      </trkpt>
      <trkpt lat="43.64289" lon="5.17385">
        <ele>114.400002</ele>
        <time>2018-08-27T07:55:46Z</time>
      </trkpt>
      <trkpt lat="43.64318" lon="5.17361">
        <ele>113.400002</ele>
        <time>2018-08-27T07:55:54Z</time>
      </trkpt>
      <trkpt lat="43.64329" lon="5.17354">
        <ele>113.400002</ele>
        <time>2018-08-27T07:55:58Z</time>
      </trkpt>
      <trkpt lat="43.64365" lon="5.17318">
        <ele>112.199997</ele>
        <time>2018-08-27T07:56:13Z</time>
      </trkpt>
      <trkpt lat="43.64359" lon="5.17317">
        <ele>112.599998</ele>
        <time>2018-08-27T07:56:54Z</time>
      </trkpt>
      <trkpt lat="43.64376" lon="5.17309">
        <ele>112.400002</ele>
        <time>2018-08-27T07:57:00Z</time>
      </trkpt>
      <trkpt lat="43.64411" lon="5.17313">
        <ele>111</ele>
        <time>2018-08-27T07:57:08Z</time>
      </trkpt>
      <trkpt lat="43.64471" lon="5.17291">
        <ele>110</ele>
        <time>2018-08-27T07:57:20Z</time>
      </trkpt>
      <trkpt lat="43.64492" lon="5.17312">
        <ele>111</ele>
        <time>2018-08-27T07:57:29Z</time>
      </trkpt>
      <trkpt lat="43.64532" lon="5.17282">
        <ele>112.599998</ele>
        <time>2018-08-27T07:57:41Z</time>
      </trkpt>
      <trkpt lat="43.64541" lon="5.17284">
        <ele>113</ele>
        <time>2018-08-27T07:57:44Z</time>
      </trkpt>
      <trkpt lat="43.64563" lon="5.17287">
        <ele>114.400002</ele>
        <time>2018-08-27T07:57:54Z</time>
      </trkpt>
      <trkpt lat="43.64579" lon="5.1728">
        <ele>117</ele>
        <time>2018-08-27T07:57:59Z</time>
      </trkpt>
      <trkpt lat="43.64603" lon="5.17263">
        <ele>119</ele>
        <time>2018-08-27T07:58:06Z</time>
      </trkpt>
      <trkpt lat="43.64613" lon="5.17241">
        <ele>119.199997</ele>
        <time>2018-08-27T07:58:11Z</time>
      </trkpt>
      <trkpt lat="43.64616" lon="5.17237">
        <ele>119.199997</ele>
        <time>2018-08-27T07:58:12Z</time>
      </trkpt>
      <trkpt lat="43.64647" lon="5.17223">
        <ele>119.599998</ele>
        <time>2018-08-27T07:58:20Z</time>
      </trkpt>
      <trkpt lat="43.64662" lon="5.17189">
        <ele>120</ele>
        <time>2018-08-27T07:58:29Z</time>
      </trkpt>
      <trkpt lat="43.64677" lon="5.17176">
        <ele>120.199997</ele>
        <time>2018-08-27T07:58:34Z</time>
      </trkpt>
      <trkpt lat="43.64699" lon="5.17162">
        <ele>121.199997</ele>
        <time>2018-08-27T07:58:40Z</time>
      </trkpt>
      <trkpt lat="43.64711" lon="5.17156">
        <ele>121.400002</ele>
        <time>2018-08-27T07:58:43Z</time>
      </trkpt>
      <trkpt lat="43.64765" lon="5.1716">
        <ele>121.400002</ele>
        <time>2018-08-27T07:58:58Z</time>
      </trkpt>
      <trkpt lat="43.6481" lon="5.17206">
        <ele>122</ele>
        <time>2018-08-27T07:59:13Z</time>
      </trkpt>
      <trkpt lat="43.64818" lon="5.17213">
        <ele>122.199997</ele>
        <time>2018-08-27T07:59:16Z</time>
      </trkpt>
      <trkpt lat="43.64851" lon="5.17247">
        <ele>124.400002</ele>
        <time>2018-08-27T07:59:27Z</time>
      </trkpt>
      <trkpt lat="43.64916" lon="5.173">
        <ele>126.599998</ele>
        <time>2018-08-27T07:59:47Z</time>
      </trkpt>
      <trkpt lat="43.64951" lon="5.17321">
        <ele>129.199997</ele>
        <time>2018-08-27T07:59:57Z</time>
      </trkpt>
      <trkpt lat="43.64964" lon="5.17332">
        <ele>130.399994</ele>
        <time>2018-08-27T08:00:01Z</time>
      </trkpt>
      <trkpt lat="43.64982" lon="5.1735">
        <ele>131.800003</ele>
        <time>2018-08-27T08:00:07Z</time>
      </trkpt>
      <trkpt lat="43.6499" lon="5.17368">
        <ele>133</ele>
        <time>2018-08-27T08:00:11Z</time>
      </trkpt>
      <trkpt lat="43.64997" lon="5.17391">
        <ele>134.199997</ele>
        <time>2018-08-27T08:00:16Z</time>
      </trkpt>
      <trkpt lat="43.64999" lon="5.17434">
        <ele>135.399994</ele>
        <time>2018-08-27T08:00:24Z</time>
      </trkpt>
      <trkpt lat="43.64998" lon="5.17455">
        <ele>135.399994</ele>
        <time>2018-08-27T08:00:27Z</time>
      </trkpt>
      <trkpt lat="43.64994" lon="5.17509">
        <ele>135.199997</ele>
        <time>2018-08-27T08:00:34Z</time>
      </trkpt>
      <trkpt lat="43.64993" lon="5.17527">
        <ele>133.600006</ele>
        <time>2018-08-27T08:00:37Z</time>
      </trkpt>
      <trkpt lat="43.64994" lon="5.17542">
        <ele>132.600006</ele>
        <time>2018-08-27T08:00:40Z</time>
      </trkpt>
      <trkpt lat="43.64989" lon="5.17583">
        <ele>132.199997</ele>
        <time>2018-08-27T08:00:46Z</time>
      </trkpt>
      <trkpt lat="43.64978" lon="5.17636">
        <ele>131.399994</ele>
        <time>2018-08-27T08:00:54Z</time>
      </trkpt>
      <trkpt lat="43.64972" lon="5.17658">
        <ele>131.199997</ele>
        <time>2018-08-27T08:00:58Z</time>
      </trkpt>
      <trkpt lat="43.64967" lon="5.17733">
        <ele>131.199997</ele>
        <time>2018-08-27T08:01:10Z</time>
      </trkpt>
      <trkpt lat="43.64975" lon="5.17783">
        <ele>133.600006</ele>
        <time>2018-08-27T08:01:21Z</time>
      </trkpt>
      <trkpt lat="43.64979" lon="5.17795">
        <ele>135.199997</ele>
        <time>2018-08-27T08:01:24Z</time>
      </trkpt>
      <trkpt lat="43.64984" lon="5.17807">
        <ele>137.800003</ele>
        <time>2018-08-27T08:01:28Z</time>
      </trkpt>
      <trkpt lat="43.64987" lon="5.17818">
        <ele>138.800003</ele>
        <time>2018-08-27T08:01:31Z</time>
      </trkpt>
      <trkpt lat="43.64989" lon="5.1783">
        <ele>140.399994</ele>
        <time>2018-08-27T08:01:34Z</time>
      </trkpt>
      <trkpt lat="43.64988" lon="5.17835">
        <ele>140.800003</ele>
        <time>2018-08-27T08:01:35Z</time>
      </trkpt>
      <trkpt lat="43.64983" lon="5.17844">
        <ele>141.600006</ele>
        <time>2018-08-27T08:01:38Z</time>
      </trkpt>
      <trkpt lat="43.64979" lon="5.17853">
        <ele>142.800003</ele>
        <time>2018-08-27T08:01:41Z</time>
      </trkpt>
      <trkpt lat="43.64981" lon="5.17878">
        <ele>146.399994</ele>
        <time>2018-08-27T08:01:46Z</time>
      </trkpt>
      <trkpt lat="43.64983" lon="5.1789">
        <ele>147</ele>
        <time>2018-08-27T08:01:48Z</time>
      </trkpt>
      <trkpt lat="43.64988" lon="5.17908">
        <ele>147.399994</ele>
        <time>2018-08-27T08:01:51Z</time>
      </trkpt>
      <trkpt lat="43.64989" lon="5.17915">
        <ele>147.399994</ele>
        <time>2018-08-27T08:01:52Z</time>
      </trkpt>
      <trkpt lat="43.64981" lon="5.17988">
        <ele>146.199997</ele>
        <time>2018-08-27T08:02:01Z</time>
      </trkpt>
      <trkpt lat="43.64977" lon="5.18011">
        <ele>145</ele>
        <time>2018-08-27T08:02:05Z</time>
      </trkpt>
      <trkpt lat="43.64975" lon="5.18033">
        <ele>142.600006</ele>
        <time>2018-08-27T08:02:09Z</time>
      </trkpt>
      <trkpt lat="43.6498" lon="5.18059">
        <ele>141.199997</ele>
        <time>2018-08-27T08:02:13Z</time>
      </trkpt>
      <trkpt lat="43.64975" lon="5.18082">
        <ele>140.399994</ele>
        <time>2018-08-27T08:02:16Z</time>
      </trkpt>
      <trkpt lat="43.64976" lon="5.18097">
        <ele>139</ele>
        <time>2018-08-27T08:02:18Z</time>
      </trkpt>
      <trkpt lat="43.64981" lon="5.18127">
        <ele>137</ele>
        <time>2018-08-27T08:02:23Z</time>
      </trkpt>
      <trkpt lat="43.64987" lon="5.1818">
        <ele>137.199997</ele>
        <time>2018-08-27T08:02:32Z</time>
      </trkpt>
      <trkpt lat="43.65011" lon="5.18193">
        <ele>137.800003</ele>
        <time>2018-08-27T08:02:41Z</time>
      </trkpt>
      <trkpt lat="43.65061" lon="5.18196">
        <ele>138.600006</ele>
        <time>2018-08-27T08:02:55Z</time>
      </trkpt>
      <trkpt lat="43.65064" lon="5.18194">
        <ele>138.600006</ele>
        <time>2018-08-27T08:02:56Z</time>
      </trkpt>
      <trkpt lat="43.65122" lon="5.18183">
        <ele>141.199997</ele>
        <time>2018-08-27T08:03:10Z</time>
      </trkpt>
      <trkpt lat="43.65151" lon="5.1818">
        <ele>142.199997</ele>
        <time>2018-08-27T08:03:18Z</time>
      </trkpt>
      <trkpt lat="43.65178" lon="5.18174">
        <ele>143.199997</ele>
        <time>2018-08-27T08:03:26Z</time>
      </trkpt>
      <trkpt lat="43.65199" lon="5.18179">
        <ele>144.199997</ele>
        <time>2018-08-27T08:03:32Z</time>
      </trkpt>
      <trkpt lat="43.65247" lon="5.18173">
        <ele>145.199997</ele>
        <time>2018-08-27T08:03:47Z</time>
      </trkpt>
      <trkpt lat="43.65289" lon="5.1818">
        <ele>146.399994</ele>
        <time>2018-08-27T08:03:58Z</time>
      </trkpt>
      <trkpt lat="43.65337" lon="5.18179">
        <ele>148.600006</ele>
        <time>2018-08-27T08:04:10Z</time>
      </trkpt>
      <trkpt lat="43.6536" lon="5.18182">
        <ele>150.199997</ele>
        <time>2018-08-27T08:04:16Z</time>
      </trkpt>
      <trkpt lat="43.65371" lon="5.1818">
        <ele>151.600006</ele>
        <time>2018-08-27T08:04:19Z</time>
      </trkpt>
      <trkpt lat="43.65382" lon="5.18184">
        <ele>152.800003</ele>
        <time>2018-08-27T08:04:24Z</time>
      </trkpt>
      <trkpt lat="43.65385" lon="5.18183">
        <ele>153.199997</ele>
        <time>2018-08-27T08:04:26Z</time>
      </trkpt>
      <trkpt lat="43.65388" lon="5.1818">
        <ele>154.199997</ele>
        <time>2018-08-27T08:04:28Z</time>
      </trkpt>
      <trkpt lat="43.65393" lon="5.18179">
        <ele>155.399994</ele>
        <time>2018-08-27T08:04:30Z</time>
      </trkpt>
      <trkpt lat="43.65415" lon="5.18172">
        <ele>156.399994</ele>
        <time>2018-08-27T08:04:37Z</time>
      </trkpt>
      <trkpt lat="43.6549" lon="5.18164">
        <ele>158.399994</ele>
        <time>2018-08-27T08:04:59Z</time>
      </trkpt>
      <trkpt lat="43.65495" lon="5.18164">
        <ele>158.600006</ele>
        <time>2018-08-27T08:05:01Z</time>
      </trkpt>
      <trkpt lat="43.655" lon="5.18161">
        <ele>159.600006</ele>
        <time>2018-08-27T08:05:03Z</time>
      </trkpt>
      <trkpt lat="43.65535" lon="5.18089">
        <ele>159.199997</ele>
        <time>2018-08-27T08:05:19Z</time>
      </trkpt>
      <trkpt lat="43.65539" lon="5.18076">
        <ele>158.199997</ele>
        <time>2018-08-27T08:05:21Z</time>
      </trkpt>
      <trkpt lat="43.65558" lon="5.18032">
        <ele>157.199997</ele>
        <time>2018-08-27T08:05:28Z</time>
      </trkpt>
      <trkpt lat="43.65559" lon="5.18026">
        <ele>157</ele>
        <time>2018-08-27T08:05:29Z</time>
      </trkpt>
      <trkpt lat="43.65557" lon="5.18012">
        <ele>155.600006</ele>
        <time>2018-08-27T08:05:31Z</time>
      </trkpt>
      <trkpt lat="43.65546" lon="5.17979">
        <ele>154.399994</ele>
        <time>2018-08-27T08:05:36Z</time>
      </trkpt>
      <trkpt lat="43.65545" lon="5.17966">
        <ele>154</ele>
        <time>2018-08-27T08:05:38Z</time>
      </trkpt>
      <trkpt lat="43.65553" lon="5.17948">
        <ele>153.600006</ele>
        <time>2018-08-27T08:05:42Z</time>
      </trkpt>
      <trkpt lat="43.6556" lon="5.1794">
        <ele>153.399994</ele>
        <time>2018-08-27T08:05:44Z</time>
      </trkpt>
      <trkpt lat="43.65599" lon="5.17904">
        <ele>154</ele>
        <time>2018-08-27T08:05:55Z</time>
      </trkpt>
      <trkpt lat="43.65645" lon="5.17884">
        <ele>156.600006</ele>
        <time>2018-08-27T08:06:06Z</time>
      </trkpt>
      <trkpt lat="43.65667" lon="5.17876">
        <ele>157.600006</ele>
        <time>2018-08-27T08:06:11Z</time>
      </trkpt>
      <trkpt lat="43.65679" lon="5.17874">
        <ele>158.199997</ele>
        <time>2018-08-27T08:06:14Z</time>
      </trkpt>
      <trkpt lat="43.65688" lon="5.17873">
        <ele>158.800003</ele>
        <time>2018-08-27T08:06:16Z</time>
      </trkpt>
      <trkpt lat="43.65795" lon="5.17884">
        <ele>161.600006</ele>
        <time>2018-08-27T08:06:38Z</time>
      </trkpt>
      <trkpt lat="43.65821" lon="5.17903">
        <ele>162.199997</ele>
        <time>2018-08-27T08:06:44Z</time>
      </trkpt>
      <trkpt lat="43.65874" lon="5.17955">
        <ele>164.199997</ele>
        <time>2018-08-27T08:06:57Z</time>
      </trkpt>
      <trkpt lat="43.65907" lon="5.17989">
        <ele>165.399994</ele>
        <time>2018-08-27T08:07:05Z</time>
      </trkpt>
      <trkpt lat="43.6593" lon="5.18015">
        <ele>166.399994</ele>
        <time>2018-08-27T08:07:11Z</time>
      </trkpt>
      <trkpt lat="43.65946" lon="5.18029">
        <ele>167.399994</ele>
        <time>2018-08-27T08:07:15Z</time>
      </trkpt>
      <trkpt lat="43.65965" lon="5.18038">
        <ele>168</ele>
        <time>2018-08-27T08:07:19Z</time>
      </trkpt>
      <trkpt lat="43.66014" lon="5.18051">
        <ele>169.199997</ele>
        <time>2018-08-27T08:07:29Z</time>
      </trkpt>
      <trkpt lat="43.66028" lon="5.18061">
        <ele>169.800003</ele>
        <time>2018-08-27T08:07:32Z</time>
      </trkpt>
      <trkpt lat="43.66082" lon="5.18117">
        <ele>171.600006</ele>
        <time>2018-08-27T08:07:45Z</time>
      </trkpt>
      <trkpt lat="43.66167" lon="5.18212">
        <ele>177.600006</ele>
        <time>2018-08-27T08:08:07Z</time>
      </trkpt>
      <trkpt lat="43.66177" lon="5.18233">
        <ele>178.600006</ele>
        <time>2018-08-27T08:08:11Z</time>
      </trkpt>
      <trkpt lat="43.66186" lon="5.18261">
        <ele>179.600006</ele>
        <time>2018-08-27T08:08:16Z</time>
      </trkpt>
      <trkpt lat="43.66198" lon="5.18293">
        <ele>181.800003</ele>
        <time>2018-08-27T08:08:22Z</time>
      </trkpt>
      <trkpt lat="43.66209" lon="5.18317">
        <ele>182.800003</ele>
        <time>2018-08-27T08:08:27Z</time>
      </trkpt>
      <trkpt lat="43.66219" lon="5.18335">
        <ele>184.399994</ele>
        <time>2018-08-27T08:08:31Z</time>
      </trkpt>
      <trkpt lat="43.6623" lon="5.18351">
        <ele>185.399994</ele>
        <time>2018-08-27T08:08:35Z</time>
      </trkpt>
      <trkpt lat="43.66245" lon="5.18367">
        <ele>186.600006</ele>
        <time>2018-08-27T08:08:40Z</time>
      </trkpt>
      <trkpt lat="43.66256" lon="5.18372">
        <ele>187.600006</ele>
        <time>2018-08-27T08:08:43Z</time>
      </trkpt>
      <trkpt lat="43.66261" lon="5.18378">
        <ele>188</ele>
        <time>2018-08-27T08:08:45Z</time>
      </trkpt>
      <trkpt lat="43.66267" lon="5.18404">
        <ele>188.199997</ele>
        <time>2018-08-27T08:08:49Z</time>
      </trkpt>
      <trkpt lat="43.66294" lon="5.1847">
        <ele>187</ele>
        <time>2018-08-27T08:08:57Z</time>
      </trkpt>
      <trkpt lat="43.66304" lon="5.18508">
        <ele>184.399994</ele>
        <time>2018-08-27T08:09:02Z</time>
      </trkpt>
      <trkpt lat="43.66329" lon="5.18579">
        <ele>185.800003</ele>
        <time>2018-08-27T08:09:16Z</time>
      </trkpt>
      <trkpt lat="43.66349" lon="5.18641">
        <ele>188.399994</ele>
        <time>2018-08-27T08:09:30Z</time>
      </trkpt>
      <trkpt lat="43.66364" lon="5.18698">
        <ele>192.800003</ele>
        <time>2018-08-27T08:09:48Z</time>
      </trkpt>
      <trkpt lat="43.66371" lon="5.18711">
        <ele>194</ele>
        <time>2018-08-27T08:09:54Z</time>
      </trkpt>
      <trkpt lat="43.66371" lon="5.18714">
        <ele>194</ele>
        <time>2018-08-27T08:09:55Z</time>
      </trkpt>
      <trkpt lat="43.66369" lon="5.18727">
        <ele>194.600006</ele>
        <time>2018-08-27T08:10:00Z</time>
      </trkpt>
      <trkpt lat="43.66369" lon="5.18735">
        <ele>195</ele>
        <time>2018-08-27T08:10:04Z</time>
      </trkpt>
      <trkpt lat="43.66368" lon="5.18748">
        <ele>198.800003</ele>
        <time>2018-08-27T08:10:12Z</time>
      </trkpt>
      <trkpt lat="43.66364" lon="5.18763">
        <ele>202.199997</ele>
        <time>2018-08-27T08:10:18Z</time>
      </trkpt>
      <trkpt lat="43.66362" lon="5.1882">
        <ele>208.399994</ele>
        <time>2018-08-27T08:10:36Z</time>
      </trkpt>
      <trkpt lat="43.66363" lon="5.18827">
        <ele>209.600006</ele>
        <time>2018-08-27T08:10:38Z</time>
      </trkpt>
      <trkpt lat="43.66364" lon="5.1885">
        <ele>210.800003</ele>
        <time>2018-08-27T08:10:44Z</time>
      </trkpt>
      <trkpt lat="43.66363" lon="5.18861">
        <ele>211.399994</ele>
        <time>2018-08-27T08:10:47Z</time>
      </trkpt>
      <trkpt lat="43.66345" lon="5.18887">
        <ele>213.600006</ele>
        <time>2018-08-27T08:10:54Z</time>
      </trkpt>
      <trkpt lat="43.66292" lon="5.18981">
        <ele>214.399994</ele>
        <time>2018-08-27T08:11:14Z</time>
      </trkpt>
      <trkpt lat="43.66258" lon="5.19075">
        <ele>214.800003</ele>
        <time>2018-08-27T08:11:28Z</time>
      </trkpt>
      <trkpt lat="43.66245" lon="5.19126">
        <ele>214.800003</ele>
        <time>2018-08-27T08:11:35Z</time>
      </trkpt>
      <trkpt lat="43.66232" lon="5.19155">
        <ele>214.600006</ele>
        <time>2018-08-27T08:11:40Z</time>
      </trkpt>
      <trkpt lat="43.66206" lon="5.19186">
        <ele>215.199997</ele>
        <time>2018-08-27T08:11:47Z</time>
      </trkpt>
      <trkpt lat="43.66187" lon="5.19216">
        <ele>216.199997</ele>
        <time>2018-08-27T08:11:53Z</time>
      </trkpt>
      <trkpt lat="43.66181" lon="5.19228">
        <ele>216.199997</ele>
        <time>2018-08-27T08:11:55Z</time>
      </trkpt>
      <trkpt lat="43.66169" lon="5.19287">
        <ele>216.199997</ele>
        <time>2018-08-27T08:12:04Z</time>
      </trkpt>
      <trkpt lat="43.6616" lon="5.19312">
        <ele>216.399994</ele>
        <time>2018-08-27T08:12:08Z</time>
      </trkpt>
      <trkpt lat="43.66164" lon="5.19356">
        <ele>216.800003</ele>
        <time>2018-08-27T08:12:14Z</time>
      </trkpt>
      <trkpt lat="43.66153" lon="5.1943">
        <ele>216.600006</ele>
        <time>2018-08-27T08:12:22Z</time>
      </trkpt>
      <trkpt lat="43.66149" lon="5.19472">
        <ele>214.800003</ele>
        <time>2018-08-27T08:12:26Z</time>
      </trkpt>
      <trkpt lat="43.66141" lon="5.19556">
        <ele>212</ele>
        <time>2018-08-27T08:12:34Z</time>
      </trkpt>
      <trkpt lat="43.66139" lon="5.19565">
        <ele>211.399994</ele>
        <time>2018-08-27T08:12:35Z</time>
      </trkpt>
      <trkpt lat="43.66132" lon="5.19591">
        <ele>210.800003</ele>
        <time>2018-08-27T08:12:38Z</time>
      </trkpt>
      <trkpt lat="43.66121" lon="5.19668">
        <ele>210.399994</ele>
        <time>2018-08-27T08:12:47Z</time>
      </trkpt>
      <trkpt lat="43.66112" lon="5.19749">
        <ele>210.399994</ele>
        <time>2018-08-27T08:12:57Z</time>
      </trkpt>
      <trkpt lat="43.66104" lon="5.19828">
        <ele>210.399994</ele>
        <time>2018-08-27T08:13:07Z</time>
      </trkpt>
      <trkpt lat="43.661" lon="5.19906">
        <ele>211</ele>
        <time>2018-08-27T08:13:17Z</time>
      </trkpt>
      <trkpt lat="43.66101" lon="5.19942">
        <ele>211.399994</ele>
        <time>2018-08-27T08:13:23Z</time>
      </trkpt>
      <trkpt lat="43.66108" lon="5.19995">
        <ele>214.199997</ele>
        <time>2018-08-27T08:13:31Z</time>
      </trkpt>
      <trkpt lat="43.66116" lon="5.20081">
        <ele>216.600006</ele>
        <time>2018-08-27T08:13:45Z</time>
      </trkpt>
      <trkpt lat="43.66121" lon="5.20117">
        <ele>218.600006</ele>
        <time>2018-08-27T08:13:52Z</time>
      </trkpt>
      <trkpt lat="43.66151" lon="5.20267">
        <ele>220</ele>
        <time>2018-08-27T08:14:13Z</time>
      </trkpt>
      <trkpt lat="43.66152" lon="5.20344">
        <ele>219.199997</ele>
        <time>2018-08-27T08:14:20Z</time>
      </trkpt>
      <trkpt lat="43.66149" lon="5.20425">
        <ele>216</ele>
        <time>2018-08-27T08:14:26Z</time>
      </trkpt>
      <trkpt lat="43.66145" lon="5.2048">
        <ele>212</ele>
        <time>2018-08-27T08:14:30Z</time>
      </trkpt>
      <trkpt lat="43.66144" lon="5.20507">
        <ele>210.399994</ele>
        <time>2018-08-27T08:14:32Z</time>
      </trkpt>
      <trkpt lat="43.66145" lon="5.20535">
        <ele>209</ele>
        <time>2018-08-27T08:14:34Z</time>
      </trkpt>
      <trkpt lat="43.66154" lon="5.20601">
        <ele>207.800003</ele>
        <time>2018-08-27T08:14:39Z</time>
      </trkpt>
      <trkpt lat="43.66165" lon="5.20652">
        <ele>204.800003</ele>
        <time>2018-08-27T08:14:43Z</time>
      </trkpt>
      <trkpt lat="43.66168" lon="5.20678">
        <ele>203.600006</ele>
        <time>2018-08-27T08:14:45Z</time>
      </trkpt>
      <trkpt lat="43.6617" lon="5.20703">
        <ele>202.399994</ele>
        <time>2018-08-27T08:14:47Z</time>
      </trkpt>
      <trkpt lat="43.6617" lon="5.20762">
        <ele>201.199997</ele>
        <time>2018-08-27T08:14:52Z</time>
      </trkpt>
      <trkpt lat="43.66172" lon="5.20807">
        <ele>199.800003</ele>
        <time>2018-08-27T08:14:56Z</time>
      </trkpt>
      <trkpt lat="43.66162" lon="5.20888">
        <ele>198.800003</ele>
        <time>2018-08-27T08:15:03Z</time>
      </trkpt>
      <trkpt lat="43.66147" lon="5.20965">
        <ele>197.600006</ele>
        <time>2018-08-27T08:15:09Z</time>
      </trkpt>
      <trkpt lat="43.66146" lon="5.20979">
        <ele>197.399994</ele>
        <time>2018-08-27T08:15:10Z</time>
      </trkpt>
      <trkpt lat="43.66153" lon="5.21019">
        <ele>196.399994</ele>
        <time>2018-08-27T08:15:13Z</time>
      </trkpt>
      <trkpt lat="43.66156" lon="5.21032">
        <ele>196</ele>
        <time>2018-08-27T08:15:14Z</time>
      </trkpt>
      <trkpt lat="43.66158" lon="5.21057">
        <ele>195</ele>
        <time>2018-08-27T08:15:16Z</time>
      </trkpt>
      <trkpt lat="43.66158" lon="5.21069">
        <ele>193.600006</ele>
        <time>2018-08-27T08:15:17Z</time>
      </trkpt>
      <trkpt lat="43.66133" lon="5.21312">
        <ele>193.600006</ele>
        <time>2018-08-27T08:15:42Z</time>
      </trkpt>
      <trkpt lat="43.66131" lon="5.21343">
        <ele>193.800003</ele>
        <time>2018-08-27T08:15:46Z</time>
      </trkpt>
      <trkpt lat="43.66131" lon="5.21363">
        <ele>194.199997</ele>
        <time>2018-08-27T08:15:49Z</time>
      </trkpt>
      <trkpt lat="43.66129" lon="5.21383">
        <ele>195</ele>
        <time>2018-08-27T08:15:52Z</time>
      </trkpt>
      <trkpt lat="43.66118" lon="5.21413">
        <ele>196.199997</ele>
        <time>2018-08-27T08:15:57Z</time>
      </trkpt>
      <trkpt lat="43.66102" lon="5.21442">
        <ele>198.399994</ele>
        <time>2018-08-27T08:16:02Z</time>
      </trkpt>
      <trkpt lat="43.66075" lon="5.21506">
        <ele>198.399994</ele>
        <time>2018-08-27T08:16:11Z</time>
      </trkpt>
      <trkpt lat="43.66031" lon="5.21616">
        <ele>196.600006</ele>
        <time>2018-08-27T08:16:25Z</time>
      </trkpt>
      <trkpt lat="43.66012" lon="5.21654">
        <ele>195</ele>
        <time>2018-08-27T08:16:29Z</time>
      </trkpt>
      <trkpt lat="43.65994" lon="5.21708">
        <ele>193.399994</ele>
        <time>2018-08-27T08:16:34Z</time>
      </trkpt>
      <trkpt lat="43.65975" lon="5.21758">
        <ele>190.199997</ele>
        <time>2018-08-27T08:16:39Z</time>
      </trkpt>
      <trkpt lat="43.65953" lon="5.21833">
        <ele>189.399994</ele>
        <time>2018-08-27T08:16:47Z</time>
      </trkpt>
      <trkpt lat="43.65937" lon="5.21908">
        <ele>189.600006</ele>
        <time>2018-08-27T08:16:56Z</time>
      </trkpt>
      <trkpt lat="43.65918" lon="5.21983">
        <ele>190.600006</ele>
        <time>2018-08-27T08:17:06Z</time>
      </trkpt>
      <trkpt lat="43.65907" lon="5.22019">
        <ele>191.399994</ele>
        <time>2018-08-27T08:17:11Z</time>
      </trkpt>
      <trkpt lat="43.65891" lon="5.22075">
        <ele>192.600006</ele>
        <time>2018-08-27T08:17:19Z</time>
      </trkpt>
      <trkpt lat="43.65879" lon="5.22109">
        <ele>193.800003</ele>
        <time>2018-08-27T08:17:24Z</time>
      </trkpt>
      <trkpt lat="43.65863" lon="5.22139">
        <ele>194.199997</ele>
        <time>2018-08-27T08:17:29Z</time>
      </trkpt>
      <trkpt lat="43.65848" lon="5.2215">
        <ele>194.800003</ele>
        <time>2018-08-27T08:17:32Z</time>
      </trkpt>
      <trkpt lat="43.65818" lon="5.22153">
        <ele>195.399994</ele>
        <time>2018-08-27T08:17:37Z</time>
      </trkpt>
      <trkpt lat="43.65801" lon="5.22158">
        <ele>195.600006</ele>
        <time>2018-08-27T08:17:40Z</time>
      </trkpt>
      <trkpt lat="43.65767" lon="5.22177">
        <ele>197.199997</ele>
        <time>2018-08-27T08:17:48Z</time>
      </trkpt>
      <trkpt lat="43.65761" lon="5.22183">
        <ele>198</ele>
        <time>2018-08-27T08:17:50Z</time>
      </trkpt>
      <trkpt lat="43.6576" lon="5.22193">
        <ele>198.399994</ele>
        <time>2018-08-27T08:17:52Z</time>
      </trkpt>
      <trkpt lat="43.65771" lon="5.22228">
        <ele>199.399994</ele>
        <time>2018-08-27T08:17:57Z</time>
      </trkpt>
      <trkpt lat="43.65782" lon="5.22273">
        <ele>199.600006</ele>
        <time>2018-08-27T08:18:02Z</time>
      </trkpt>
      <trkpt lat="43.65774" lon="5.22349">
        <ele>199.399994</ele>
        <time>2018-08-27T08:18:09Z</time>
      </trkpt>
      <trkpt lat="43.65748" lon="5.22425">
        <ele>196</ele>
        <time>2018-08-27T08:18:15Z</time>
      </trkpt>
      <trkpt lat="43.65734" lon="5.22467">
        <ele>193.199997</ele>
        <time>2018-08-27T08:18:18Z</time>
      </trkpt>
      <trkpt lat="43.65703" lon="5.22577">
        <ele>185.800003</ele>
        <time>2018-08-27T08:18:26Z</time>
      </trkpt>
      <trkpt lat="43.65695" lon="5.22613">
        <ele>184.399994</ele>
        <time>2018-08-27T08:18:29Z</time>
      </trkpt>
      <trkpt lat="43.6568" lon="5.22684">
        <ele>184</ele>
        <time>2018-08-27T08:18:36Z</time>
      </trkpt>
      <trkpt lat="43.65676" lon="5.22764">
        <ele>184.800003</ele>
        <time>2018-08-27T08:18:45Z</time>
      </trkpt>
      <trkpt lat="43.65674" lon="5.2289">
        <ele>184.800003</ele>
        <time>2018-08-27T08:18:59Z</time>
      </trkpt>
      <trkpt lat="43.65665" lon="5.2293">
        <ele>183.600006</ele>
        <time>2018-08-27T08:19:03Z</time>
      </trkpt>
      <trkpt lat="43.65651" lon="5.22967">
        <ele>181.800003</ele>
        <time>2018-08-27T08:19:07Z</time>
      </trkpt>
      <trkpt lat="43.65648" lon="5.22975">
        <ele>181.199997</ele>
        <time>2018-08-27T08:19:08Z</time>
      </trkpt>
      <trkpt lat="43.65648" lon="5.22992">
        <ele>180.399994</ele>
        <time>2018-08-27T08:19:10Z</time>
      </trkpt>
      <trkpt lat="43.6566" lon="5.23071">
        <ele>178.399994</ele>
        <time>2018-08-27T08:19:18Z</time>
      </trkpt>
      <trkpt lat="43.65664" lon="5.23107">
        <ele>177.199997</ele>
        <time>2018-08-27T08:19:21Z</time>
      </trkpt>
      <trkpt lat="43.65667" lon="5.23156">
        <ele>174.199997</ele>
        <time>2018-08-27T08:19:25Z</time>
      </trkpt>
      <trkpt lat="43.65672" lon="5.23192">
        <ele>173.199997</ele>
        <time>2018-08-27T08:19:28Z</time>
      </trkpt>
      <trkpt lat="43.65679" lon="5.23215">
        <ele>172</ele>
        <time>2018-08-27T08:19:30Z</time>
      </trkpt>
      <trkpt lat="43.65702" lon="5.23273">
        <ele>169.399994</ele>
        <time>2018-08-27T08:19:36Z</time>
      </trkpt>
      <trkpt lat="43.657" lon="5.23302">
        <ele>169.399994</ele>
        <time>2018-08-27T08:19:40Z</time>
      </trkpt>
      <trkpt lat="43.65695" lon="5.23317">
        <ele>169.399994</ele>
        <time>2018-08-27T08:19:42Z</time>
      </trkpt>
      <trkpt lat="43.65671" lon="5.23385">
        <ele>169.399994</ele>
        <time>2018-08-27T08:19:51Z</time>
      </trkpt>
      <trkpt lat="43.65606" lon="5.23568">
        <ele>166.800003</ele>
        <time>2018-08-27T08:20:17Z</time>
      </trkpt>
      <trkpt lat="43.65599" lon="5.23598">
        <ele>166.199997</ele>
        <time>2018-08-27T08:20:21Z</time>
      </trkpt>
      <trkpt lat="43.65576" lon="5.23658">
        <ele>165.600006</ele>
        <time>2018-08-27T08:20:28Z</time>
      </trkpt>
      <trkpt lat="43.65566" lon="5.23691">
        <ele>164.800003</ele>
        <time>2018-08-27T08:20:32Z</time>
      </trkpt>
      <trkpt lat="43.6555" lon="5.23739">
        <ele>164.199997</ele>
        <time>2018-08-27T08:20:38Z</time>
      </trkpt>
      <trkpt lat="43.65541" lon="5.23761">
        <ele>164.199997</ele>
        <time>2018-08-27T08:20:41Z</time>
      </trkpt>
      <trkpt lat="43.65496" lon="5.23907">
        <ele>164.399994</ele>
        <time>2018-08-27T08:21:01Z</time>
      </trkpt>
      <trkpt lat="43.65473" lon="5.23976">
        <ele>166.600006</ele>
        <time>2018-08-27T08:21:20Z</time>
      </trkpt>
      <trkpt lat="43.65421" lon="5.24143">
        <ele>168.800003</ele>
        <time>2018-08-27T08:21:48Z</time>
      </trkpt>
      <trkpt lat="43.65411" lon="5.24172">
        <ele>169.800003</ele>
        <time>2018-08-27T08:21:52Z</time>
      </trkpt>
      <trkpt lat="43.65366" lon="5.24312">
        <ele>169.800003</ele>
        <time>2018-08-27T08:22:11Z</time>
      </trkpt>
      <trkpt lat="43.65336" lon="5.24399">
        <ele>170.199997</ele>
        <time>2018-08-27T08:22:24Z</time>
      </trkpt>
      <trkpt lat="43.65322" lon="5.24446">
        <ele>171</ele>
        <time>2018-08-27T08:22:36Z</time>
      </trkpt>
      <trkpt lat="43.65321" lon="5.24448">
        <ele>171.199997</ele>
        <time>2018-08-27T08:22:37Z</time>
      </trkpt>
      <trkpt lat="43.65315" lon="5.24471">
        <ele>171.600006</ele>
        <time>2018-08-27T08:22:47Z</time>
      </trkpt>
      <trkpt lat="43.65282" lon="5.24574">
        <ele>171.199997</ele>
        <time>2018-08-27T08:23:06Z</time>
      </trkpt>
      <trkpt lat="43.65255" lon="5.24627">
        <ele>171.199997</ele>
        <time>2018-08-27T08:23:17Z</time>
      </trkpt>
      <trkpt lat="43.6521" lon="5.2467">
        <ele>171.199997</ele>
        <time>2018-08-27T08:23:31Z</time>
      </trkpt>
      <trkpt lat="43.65193" lon="5.2468">
        <ele>171.600006</ele>
        <time>2018-08-27T08:23:41Z</time>
      </trkpt>
      <trkpt lat="43.65178" lon="5.24678">
        <ele>172</ele>
        <time>2018-08-27T08:23:49Z</time>
      </trkpt>
      <trkpt lat="43.65165" lon="5.24688">
        <ele>172.199997</ele>
        <time>2018-08-27T08:23:55Z</time>
      </trkpt>
      <trkpt lat="43.65152" lon="5.24842">
        <ele>172.199997</ele>
        <time>2018-08-27T08:24:15Z</time>
      </trkpt>
      <trkpt lat="43.65135" lon="5.24918">
        <ele>173</ele>
        <time>2018-08-27T08:24:25Z</time>
      </trkpt>
      <trkpt lat="43.65123" lon="5.24937">
        <ele>173</ele>
        <time>2018-08-27T08:24:28Z</time>
      </trkpt>
      <trkpt lat="43.65076" lon="5.24987">
        <ele>173.600006</ele>
        <time>2018-08-27T08:24:38Z</time>
      </trkpt>
      <trkpt lat="43.65016" lon="5.25046">
        <ele>174.399994</ele>
        <time>2018-08-27T08:24:51Z</time>
      </trkpt>
      <trkpt lat="43.65002" lon="5.25055">
        <ele>175.199997</ele>
        <time>2018-08-27T08:24:54Z</time>
      </trkpt>
      <trkpt lat="43.64993" lon="5.2506">
        <ele>175.600006</ele>
        <time>2018-08-27T08:24:56Z</time>
      </trkpt>
      <trkpt lat="43.64973" lon="5.25066">
        <ele>176.399994</ele>
        <time>2018-08-27T08:25:00Z</time>
      </trkpt>
      <trkpt lat="43.64953" lon="5.25093">
        <ele>177.399994</ele>
        <time>2018-08-27T08:25:07Z</time>
      </trkpt>
      <trkpt lat="43.64953" lon="5.25096">
        <ele>177.399994</ele>
        <time>2018-08-27T08:25:08Z</time>
      </trkpt>
      <trkpt lat="43.64971" lon="5.2511">
        <ele>178</ele>
        <time>2018-08-27T08:25:13Z</time>
      </trkpt>
      <trkpt lat="43.64983" lon="5.25117">
        <ele>178</ele>
        <time>2018-08-27T08:25:16Z</time>
      </trkpt>
      <trkpt lat="43.6501" lon="5.25125">
        <ele>178.399994</ele>
        <time>2018-08-27T08:25:22Z</time>
      </trkpt>
      <trkpt lat="43.65027" lon="5.25136">
        <ele>178.399994</ele>
        <time>2018-08-27T08:25:27Z</time>
      </trkpt>
      <trkpt lat="43.65029" lon="5.25143">
        <ele>178.399994</ele>
        <time>2018-08-27T08:25:29Z</time>
      </trkpt>
      <trkpt lat="43.65028" lon="5.25149">
        <ele>178.600006</ele>
        <time>2018-08-27T08:25:31Z</time>
      </trkpt>
      <trkpt lat="43.65029" lon="5.2515">
        <ele>181.199997</ele>
        <time>2018-08-27T08:25:46Z</time>
      </trkpt>
    </trkseg>
  </trk>
</gpx>